<?xml version="1.0" encoding="UTF-8" standalone="no" ?>
<gpx xmlns="http://www.topografix.com/GPX/1/1" xmlns:xsi="http://www.w3.org/2001/XMLSchema-instance" xsi:schemaLocation="http://www.topografix.com/GPX/1/1 http://www.topografix.com/GPX/1/1/gpx.xsd" version="1.1" creator="VisuGPX - https://www.visugpx.com">
  <metadata>
    <name>Derby</name>
    <desc><![CDATA[Trace AlpineQuest 06/12/2020 13:12:35]]></desc>
  </metadata>
  <trk>
    <name><![CDATA[Derby_1]]></name>
    <trkseg>
      <trkpt lat="45.57156" lon="6.79305">
        <ele>1957.613</ele>
        <time>2020-12-06T12:12:35Z</time>
      </trkpt>
      <trkpt lat="45.5715" lon="6.79305">
        <ele>1959.733</ele>
        <time>2020-12-06T12:13:53Z</time>
      </trkpt>
      <trkpt lat="45.57142" lon="6.79306">
        <ele>1961.118</ele>
        <time>2020-12-06T12:13:59Z</time>
      </trkpt>
      <trkpt lat="45.57135" lon="6.79307">
        <ele>1962.758</ele>
        <time>2020-12-06T12:14:05Z</time>
      </trkpt>
      <trkpt lat="45.57128" lon="6.7931">
        <ele>1963.176</ele>
        <time>2020-12-06T12:14:11Z</time>
      </trkpt>
      <trkpt lat="45.57122" lon="6.79313">
        <ele>1963.131</ele>
        <time>2020-12-06T12:14:17Z</time>
      </trkpt>
      <trkpt lat="45.57116" lon="6.79317">
        <ele>1964.599</ele>
        <time>2020-12-06T12:14:23Z</time>
      </trkpt>
      <trkpt lat="45.57109" lon="6.79317">
        <ele>1965.44</ele>
        <time>2020-12-06T12:14:30Z</time>
      </trkpt>
      <trkpt lat="45.57102" lon="6.79321">
        <ele>1966.217</ele>
        <time>2020-12-06T12:14:38Z</time>
      </trkpt>
      <trkpt lat="45.57095" lon="6.79321">
        <ele>1969.627</ele>
        <time>2020-12-06T12:14:47Z</time>
      </trkpt>
      <trkpt lat="45.57088" lon="6.7932">
        <ele>1972.805</ele>
        <time>2020-12-06T12:14:57Z</time>
      </trkpt>
      <trkpt lat="45.57081" lon="6.79321">
        <ele>1977.042</ele>
        <time>2020-12-06T12:15:10Z</time>
      </trkpt>
      <trkpt lat="45.57077" lon="6.79329">
        <ele>1976.958</ele>
        <time>2020-12-06T12:15:21Z</time>
      </trkpt>
      <trkpt lat="45.57072" lon="6.79336">
        <ele>1977.389</ele>
        <time>2020-12-06T12:15:31Z</time>
      </trkpt>
      <trkpt lat="45.57067" lon="6.79342">
        <ele>1976.346</ele>
        <time>2020-12-06T12:16:00Z</time>
      </trkpt>
      <trkpt lat="45.57068" lon="6.79353">
        <ele>1975.605</ele>
        <time>2020-12-06T12:16:07Z</time>
      </trkpt>
      <trkpt lat="45.57074" lon="6.79358">
        <ele>1976.849</ele>
        <time>2020-12-06T12:16:13Z</time>
      </trkpt>
      <trkpt lat="45.5708" lon="6.79363">
        <ele>1977.653</ele>
        <time>2020-12-06T12:16:18Z</time>
      </trkpt>
      <trkpt lat="45.57086" lon="6.79367">
        <ele>1977.851</ele>
        <time>2020-12-06T12:16:24Z</time>
      </trkpt>
      <trkpt lat="45.57093" lon="6.79369">
        <ele>1976.595</ele>
        <time>2020-12-06T12:16:31Z</time>
      </trkpt>
      <trkpt lat="45.57099" lon="6.79371">
        <ele>1976.714</ele>
        <time>2020-12-06T12:16:38Z</time>
      </trkpt>
      <trkpt lat="45.57106" lon="6.79372">
        <ele>1976.726</ele>
        <time>2020-12-06T12:16:45Z</time>
      </trkpt>
      <trkpt lat="45.57113" lon="6.79374">
        <ele>1978.021</ele>
        <time>2020-12-06T12:16:52Z</time>
      </trkpt>
      <trkpt lat="45.5712" lon="6.79377">
        <ele>1980.212</ele>
        <time>2020-12-06T12:16:59Z</time>
      </trkpt>
      <trkpt lat="45.57127" lon="6.79378">
        <ele>1979.918</ele>
        <time>2020-12-06T12:17:06Z</time>
      </trkpt>
      <trkpt lat="45.57133" lon="6.79379">
        <ele>1979.536</ele>
        <time>2020-12-06T12:17:12Z</time>
      </trkpt>
      <trkpt lat="45.5714" lon="6.79381">
        <ele>1980.339</ele>
        <time>2020-12-06T12:17:18Z</time>
      </trkpt>
      <trkpt lat="45.57147" lon="6.79385">
        <ele>1980.096</ele>
        <time>2020-12-06T12:17:25Z</time>
      </trkpt>
      <trkpt lat="45.57153" lon="6.79389">
        <ele>1980.441</ele>
        <time>2020-12-06T12:17:31Z</time>
      </trkpt>
      <trkpt lat="45.57159" lon="6.79395">
        <ele>1981.172</ele>
        <time>2020-12-06T12:17:38Z</time>
      </trkpt>
      <trkpt lat="45.57165" lon="6.79401">
        <ele>1982.582</ele>
        <time>2020-12-06T12:17:45Z</time>
      </trkpt>
      <trkpt lat="45.57171" lon="6.79407">
        <ele>1984.607</ele>
        <time>2020-12-06T12:17:51Z</time>
      </trkpt>
      <trkpt lat="45.57177" lon="6.79413">
        <ele>1984.859</ele>
        <time>2020-12-06T12:17:57Z</time>
      </trkpt>
      <trkpt lat="45.57183" lon="6.79419">
        <ele>1985.887</ele>
        <time>2020-12-06T12:18:03Z</time>
      </trkpt>
      <trkpt lat="45.57188" lon="6.79425">
        <ele>1987.348</ele>
        <time>2020-12-06T12:18:09Z</time>
      </trkpt>
      <trkpt lat="45.57194" lon="6.7943">
        <ele>1987.789</ele>
        <time>2020-12-06T12:18:15Z</time>
      </trkpt>
      <trkpt lat="45.57199" lon="6.79436">
        <ele>1988.952</ele>
        <time>2020-12-06T12:18:21Z</time>
      </trkpt>
      <trkpt lat="45.57205" lon="6.79443">
        <ele>1990.192</ele>
        <time>2020-12-06T12:18:28Z</time>
      </trkpt>
      <trkpt lat="45.5721" lon="6.79449">
        <ele>1991.901</ele>
        <time>2020-12-06T12:18:36Z</time>
      </trkpt>
      <trkpt lat="45.57218" lon="6.79452">
        <ele>1992.036</ele>
        <time>2020-12-06T12:18:43Z</time>
      </trkpt>
      <trkpt lat="45.57224" lon="6.79455">
        <ele>1993.376</ele>
        <time>2020-12-06T12:18:49Z</time>
      </trkpt>
      <trkpt lat="45.5723" lon="6.79459">
        <ele>1994.397</ele>
        <time>2020-12-06T12:18:55Z</time>
      </trkpt>
      <trkpt lat="45.57237" lon="6.79461">
        <ele>1995.237</ele>
        <time>2020-12-06T12:19:01Z</time>
      </trkpt>
      <trkpt lat="45.57243" lon="6.79466">
        <ele>1997.977</ele>
        <time>2020-12-06T12:19:07Z</time>
      </trkpt>
      <trkpt lat="45.5725" lon="6.79468">
        <ele>1998.723</ele>
        <time>2020-12-06T12:19:13Z</time>
      </trkpt>
      <trkpt lat="45.57256" lon="6.79471">
        <ele>1999.612</ele>
        <time>2020-12-06T12:19:19Z</time>
      </trkpt>
      <trkpt lat="45.57264" lon="6.79473">
        <ele>2000.369</ele>
        <time>2020-12-06T12:19:25Z</time>
      </trkpt>
      <trkpt lat="45.5727" lon="6.79476">
        <ele>2002.639</ele>
        <time>2020-12-06T12:19:30Z</time>
      </trkpt>
      <trkpt lat="45.57277" lon="6.79479">
        <ele>2002.88</ele>
        <time>2020-12-06T12:19:36Z</time>
      </trkpt>
      <trkpt lat="45.57284" lon="6.79482">
        <ele>2004.16</ele>
        <time>2020-12-06T12:19:42Z</time>
      </trkpt>
      <trkpt lat="45.5729" lon="6.79483">
        <ele>2004.745</ele>
        <time>2020-12-06T12:19:47Z</time>
      </trkpt>
      <trkpt lat="45.57298" lon="6.79483">
        <ele>2004.412</ele>
        <time>2020-12-06T12:19:53Z</time>
      </trkpt>
      <trkpt lat="45.57304" lon="6.79486">
        <ele>2004.057</ele>
        <time>2020-12-06T12:19:59Z</time>
      </trkpt>
      <trkpt lat="45.57309" lon="6.79493">
        <ele>2004.196</ele>
        <time>2020-12-06T12:20:05Z</time>
      </trkpt>
      <trkpt lat="45.57314" lon="6.795">
        <ele>2004.016</ele>
        <time>2020-12-06T12:20:11Z</time>
      </trkpt>
      <trkpt lat="45.5732" lon="6.79505">
        <ele>2005.07</ele>
        <time>2020-12-06T12:20:17Z</time>
      </trkpt>
      <trkpt lat="45.57326" lon="6.7951">
        <ele>2005.431</ele>
        <time>2020-12-06T12:20:24Z</time>
      </trkpt>
      <trkpt lat="45.57332" lon="6.79516">
        <ele>2006.39</ele>
        <time>2020-12-06T12:20:30Z</time>
      </trkpt>
      <trkpt lat="45.57338" lon="6.79521">
        <ele>2007.784</ele>
        <time>2020-12-06T12:20:37Z</time>
      </trkpt>
      <trkpt lat="45.57343" lon="6.79528">
        <ele>2006.705</ele>
        <time>2020-12-06T12:20:43Z</time>
      </trkpt>
      <trkpt lat="45.57348" lon="6.79534">
        <ele>2007.836</ele>
        <time>2020-12-06T12:20:48Z</time>
      </trkpt>
      <trkpt lat="45.57354" lon="6.79539">
        <ele>2008.731</ele>
        <time>2020-12-06T12:20:54Z</time>
      </trkpt>
      <trkpt lat="45.57361" lon="6.79542">
        <ele>2009.361</ele>
        <time>2020-12-06T12:20:59Z</time>
      </trkpt>
      <trkpt lat="45.57367" lon="6.79547">
        <ele>2009.706</ele>
        <time>2020-12-06T12:21:05Z</time>
      </trkpt>
      <trkpt lat="45.57374" lon="6.79551">
        <ele>2009.831</ele>
        <time>2020-12-06T12:21:11Z</time>
      </trkpt>
      <trkpt lat="45.57381" lon="6.79552">
        <ele>2009.514</ele>
        <time>2020-12-06T12:21:17Z</time>
      </trkpt>
      <trkpt lat="45.57388" lon="6.79551">
        <ele>2008.83</ele>
        <time>2020-12-06T12:21:22Z</time>
      </trkpt>
      <trkpt lat="45.57394" lon="6.79549">
        <ele>2009.822</ele>
        <time>2020-12-06T12:21:27Z</time>
      </trkpt>
      <trkpt lat="45.57402" lon="6.79548">
        <ele>2010.838</ele>
        <time>2020-12-06T12:21:33Z</time>
      </trkpt>
      <trkpt lat="45.57409" lon="6.79547">
        <ele>2009.886</ele>
        <time>2020-12-06T12:21:39Z</time>
      </trkpt>
      <trkpt lat="45.57417" lon="6.79548">
        <ele>2011.278</ele>
        <time>2020-12-06T12:21:45Z</time>
      </trkpt>
      <trkpt lat="45.57424" lon="6.79548">
        <ele>2015.097</ele>
        <time>2020-12-06T12:21:52Z</time>
      </trkpt>
      <trkpt lat="45.57431" lon="6.7955">
        <ele>2015.296</ele>
        <time>2020-12-06T12:21:58Z</time>
      </trkpt>
      <trkpt lat="45.57437" lon="6.79552">
        <ele>2016.747</ele>
        <time>2020-12-06T12:22:04Z</time>
      </trkpt>
      <trkpt lat="45.57445" lon="6.79555">
        <ele>2016.191</ele>
        <time>2020-12-06T12:22:11Z</time>
      </trkpt>
      <trkpt lat="45.57451" lon="6.79557">
        <ele>2016.804</ele>
        <time>2020-12-06T12:22:17Z</time>
      </trkpt>
      <trkpt lat="45.57458" lon="6.79561">
        <ele>2018.71</ele>
        <time>2020-12-06T12:22:24Z</time>
      </trkpt>
      <trkpt lat="45.57465" lon="6.79565">
        <ele>2018.961</ele>
        <time>2020-12-06T12:22:31Z</time>
      </trkpt>
      <trkpt lat="45.57472" lon="6.79569">
        <ele>2019.386</ele>
        <time>2020-12-06T12:22:38Z</time>
      </trkpt>
      <trkpt lat="45.57478" lon="6.79574">
        <ele>2019.625</ele>
        <time>2020-12-06T12:22:44Z</time>
      </trkpt>
      <trkpt lat="45.57484" lon="6.79578">
        <ele>2020.883</ele>
        <time>2020-12-06T12:22:50Z</time>
      </trkpt>
      <trkpt lat="45.5749" lon="6.79584">
        <ele>2022.014</ele>
        <time>2020-12-06T12:22:56Z</time>
      </trkpt>
      <trkpt lat="45.57495" lon="6.79592">
        <ele>2023.937</ele>
        <time>2020-12-06T12:23:02Z</time>
      </trkpt>
      <trkpt lat="45.575" lon="6.79598">
        <ele>2024.65</ele>
        <time>2020-12-06T12:23:08Z</time>
      </trkpt>
      <trkpt lat="45.57503" lon="6.79607">
        <ele>2025.591</ele>
        <time>2020-12-06T12:23:14Z</time>
      </trkpt>
      <trkpt lat="45.57503" lon="6.79616">
        <ele>2026.863</ele>
        <time>2020-12-06T12:23:20Z</time>
      </trkpt>
      <trkpt lat="45.57504" lon="6.79626">
        <ele>2028.625</ele>
        <time>2020-12-06T12:23:26Z</time>
      </trkpt>
      <trkpt lat="45.57504" lon="6.79636">
        <ele>2029.21</ele>
        <time>2020-12-06T12:23:32Z</time>
      </trkpt>
      <trkpt lat="45.57504" lon="6.79646">
        <ele>2031.518</ele>
        <time>2020-12-06T12:23:39Z</time>
      </trkpt>
      <trkpt lat="45.57504" lon="6.79656">
        <ele>2032.167</ele>
        <time>2020-12-06T12:23:46Z</time>
      </trkpt>
      <trkpt lat="45.57506" lon="6.79666">
        <ele>2033.648</ele>
        <time>2020-12-06T12:23:53Z</time>
      </trkpt>
      <trkpt lat="45.57507" lon="6.79676">
        <ele>2034.303</ele>
        <time>2020-12-06T12:24:00Z</time>
      </trkpt>
      <trkpt lat="45.5751" lon="6.79685">
        <ele>2035.639</ele>
        <time>2020-12-06T12:24:08Z</time>
      </trkpt>
      <trkpt lat="45.57512" lon="6.79695">
        <ele>2037.711</ele>
        <time>2020-12-06T12:24:16Z</time>
      </trkpt>
      <trkpt lat="45.57514" lon="6.79704">
        <ele>2039.791</ele>
        <time>2020-12-06T12:24:24Z</time>
      </trkpt>
      <trkpt lat="45.57508" lon="6.79709">
        <ele>2040.509</ele>
        <time>2020-12-06T12:24:35Z</time>
      </trkpt>
      <trkpt lat="45.57502" lon="6.79712">
        <ele>2042.916</ele>
        <time>2020-12-06T12:24:46Z</time>
      </trkpt>
      <trkpt lat="45.57495" lon="6.79716">
        <ele>2046.33</ele>
        <time>2020-12-06T12:25:38Z</time>
      </trkpt>
      <trkpt lat="45.57493" lon="6.79725">
        <ele>2047.708</ele>
        <time>2020-12-06T12:25:49Z</time>
      </trkpt>
      <trkpt lat="45.57494" lon="6.79735">
        <ele>2048.682</ele>
        <time>2020-12-06T12:26:00Z</time>
      </trkpt>
      <trkpt lat="45.57488" lon="6.7974">
        <ele>2053.645</ele>
        <time>2020-12-06T12:26:16Z</time>
      </trkpt>
      <trkpt lat="45.57486" lon="6.7975">
        <ele>2057.462</ele>
        <time>2020-12-06T12:26:31Z</time>
      </trkpt>
      <trkpt lat="45.57486" lon="6.79759">
        <ele>2058.774</ele>
        <time>2020-12-06T12:26:42Z</time>
      </trkpt>
      <trkpt lat="45.57482" lon="6.79767">
        <ele>2061.184</ele>
        <time>2020-12-06T12:26:57Z</time>
      </trkpt>
      <trkpt lat="45.57476" lon="6.79772">
        <ele>2065.961</ele>
        <time>2020-12-06T12:27:15Z</time>
      </trkpt>
      <trkpt lat="45.57471" lon="6.79778">
        <ele>2067.565</ele>
        <time>2020-12-06T12:27:28Z</time>
      </trkpt>
      <trkpt lat="45.57466" lon="6.79784">
        <ele>2069.606</ele>
        <time>2020-12-06T12:27:39Z</time>
      </trkpt>
      <trkpt lat="45.5746" lon="6.79789">
        <ele>2071.738</ele>
        <time>2020-12-06T12:27:51Z</time>
      </trkpt>
      <trkpt lat="45.57454" lon="6.79794">
        <ele>2074.167</ele>
        <time>2020-12-06T12:28:03Z</time>
      </trkpt>
      <trkpt lat="45.57449" lon="6.79801">
        <ele>2075.63</ele>
        <time>2020-12-06T12:28:15Z</time>
      </trkpt>
      <trkpt lat="45.57446" lon="6.7981">
        <ele>2076.51</ele>
        <time>2020-12-06T12:28:26Z</time>
      </trkpt>
      <trkpt lat="45.5744" lon="6.79816">
        <ele>2080.747</ele>
        <time>2020-12-06T12:29:22Z</time>
      </trkpt>
      <trkpt lat="45.57433" lon="6.79816">
        <ele>2082.095</ele>
        <time>2020-12-06T12:29:29Z</time>
      </trkpt>
      <trkpt lat="45.57426" lon="6.79814">
        <ele>2082.807</ele>
        <time>2020-12-06T12:29:37Z</time>
      </trkpt>
      <trkpt lat="45.57419" lon="6.79811">
        <ele>2083.01</ele>
        <time>2020-12-06T12:29:44Z</time>
      </trkpt>
      <trkpt lat="45.57413" lon="6.79808">
        <ele>2083.23</ele>
        <time>2020-12-06T12:29:51Z</time>
      </trkpt>
      <trkpt lat="45.57407" lon="6.79804">
        <ele>2084.244</ele>
        <time>2020-12-06T12:30:46Z</time>
      </trkpt>
      <trkpt lat="45.574" lon="6.79801">
        <ele>2084.582</ele>
        <time>2020-12-06T12:30:53Z</time>
      </trkpt>
      <trkpt lat="45.57394" lon="6.79798">
        <ele>2084.531</ele>
        <time>2020-12-06T12:31:00Z</time>
      </trkpt>
      <trkpt lat="45.57387" lon="6.79794">
        <ele>2085.183</ele>
        <time>2020-12-06T12:31:08Z</time>
      </trkpt>
      <trkpt lat="45.5738" lon="6.79792">
        <ele>2086.451</ele>
        <time>2020-12-06T12:31:16Z</time>
      </trkpt>
      <trkpt lat="45.57374" lon="6.79787">
        <ele>2087.701</ele>
        <time>2020-12-06T12:31:23Z</time>
      </trkpt>
      <trkpt lat="45.57368" lon="6.79782">
        <ele>2088.433</ele>
        <time>2020-12-06T12:31:30Z</time>
      </trkpt>
      <trkpt lat="45.57362" lon="6.79777">
        <ele>2088.966</ele>
        <time>2020-12-06T12:31:39Z</time>
      </trkpt>
      <trkpt lat="45.57355" lon="6.79775">
        <ele>2091.163</ele>
        <time>2020-12-06T12:31:47Z</time>
      </trkpt>
      <trkpt lat="45.57348" lon="6.79775">
        <ele>2092.172</ele>
        <time>2020-12-06T12:31:56Z</time>
      </trkpt>
      <trkpt lat="45.57342" lon="6.79777">
        <ele>2093.75</ele>
        <time>2020-12-06T12:32:04Z</time>
      </trkpt>
      <trkpt lat="45.57335" lon="6.79778">
        <ele>2094.723</ele>
        <time>2020-12-06T12:32:14Z</time>
      </trkpt>
      <trkpt lat="45.57328" lon="6.79783">
        <ele>2095.655</ele>
        <time>2020-12-06T12:32:23Z</time>
      </trkpt>
      <trkpt lat="45.57323" lon="6.79789">
        <ele>2096.282</ele>
        <time>2020-12-06T12:32:31Z</time>
      </trkpt>
      <trkpt lat="45.57318" lon="6.79795">
        <ele>2096.61</ele>
        <time>2020-12-06T12:32:39Z</time>
      </trkpt>
      <trkpt lat="45.57313" lon="6.79801">
        <ele>2096.555</ele>
        <time>2020-12-06T12:32:47Z</time>
      </trkpt>
      <trkpt lat="45.57308" lon="6.79807">
        <ele>2097.598</ele>
        <time>2020-12-06T12:32:57Z</time>
      </trkpt>
      <trkpt lat="45.57303" lon="6.79815">
        <ele>2099.109</ele>
        <time>2020-12-06T12:33:06Z</time>
      </trkpt>
      <trkpt lat="45.57298" lon="6.79821">
        <ele>2099.204</ele>
        <time>2020-12-06T12:33:13Z</time>
      </trkpt>
      <trkpt lat="45.57293" lon="6.79826">
        <ele>2100.756</ele>
        <time>2020-12-06T12:33:21Z</time>
      </trkpt>
      <trkpt lat="45.57286" lon="6.79829">
        <ele>2104.048</ele>
        <time>2020-12-06T12:33:31Z</time>
      </trkpt>
      <trkpt lat="45.57279" lon="6.79826">
        <ele>2105.78</ele>
        <time>2020-12-06T12:33:38Z</time>
      </trkpt>
      <trkpt lat="45.57272" lon="6.79824">
        <ele>2106.784</ele>
        <time>2020-12-06T12:33:45Z</time>
      </trkpt>
      <trkpt lat="45.57265" lon="6.79822">
        <ele>2107.488</ele>
        <time>2020-12-06T12:33:52Z</time>
      </trkpt>
      <trkpt lat="45.57258" lon="6.7982">
        <ele>2108.009</ele>
        <time>2020-12-06T12:33:59Z</time>
      </trkpt>
      <trkpt lat="45.57251" lon="6.79817">
        <ele>2108.824</ele>
        <time>2020-12-06T12:34:06Z</time>
      </trkpt>
      <trkpt lat="45.57244" lon="6.79816">
        <ele>2109.998</ele>
        <time>2020-12-06T12:34:13Z</time>
      </trkpt>
      <trkpt lat="45.57238" lon="6.79813">
        <ele>2110.544</ele>
        <time>2020-12-06T12:34:20Z</time>
      </trkpt>
      <trkpt lat="45.57231" lon="6.7981">
        <ele>2110.428</ele>
        <time>2020-12-06T12:34:27Z</time>
      </trkpt>
      <trkpt lat="45.57224" lon="6.79807">
        <ele>2110.057</ele>
        <time>2020-12-06T12:34:33Z</time>
      </trkpt>
      <trkpt lat="45.57218" lon="6.79806">
        <ele>2109.176</ele>
        <time>2020-12-06T12:34:39Z</time>
      </trkpt>
      <trkpt lat="45.57211" lon="6.79803">
        <ele>2109.275</ele>
        <time>2020-12-06T12:34:45Z</time>
      </trkpt>
      <trkpt lat="45.57204" lon="6.798">
        <ele>2109.061</ele>
        <time>2020-12-06T12:34:51Z</time>
      </trkpt>
      <trkpt lat="45.57198" lon="6.79797">
        <ele>2109.158</ele>
        <time>2020-12-06T12:34:57Z</time>
      </trkpt>
      <trkpt lat="45.57192" lon="6.79794">
        <ele>2109.433</ele>
        <time>2020-12-06T12:35:03Z</time>
      </trkpt>
      <trkpt lat="45.57185" lon="6.7979">
        <ele>2109.842</ele>
        <time>2020-12-06T12:35:09Z</time>
      </trkpt>
      <trkpt lat="45.57178" lon="6.79786">
        <ele>2110.462</ele>
        <time>2020-12-06T12:35:15Z</time>
      </trkpt>
      <trkpt lat="45.57171" lon="6.79783">
        <ele>2110.163</ele>
        <time>2020-12-06T12:35:21Z</time>
      </trkpt>
      <trkpt lat="45.57165" lon="6.79781">
        <ele>2110.096</ele>
        <time>2020-12-06T12:35:27Z</time>
      </trkpt>
      <trkpt lat="45.57158" lon="6.79782">
        <ele>2107.067</ele>
        <time>2020-12-06T12:37:26Z</time>
      </trkpt>
      <trkpt lat="45.57151" lon="6.79782">
        <ele>2106.937</ele>
        <time>2020-12-06T12:38:07Z</time>
      </trkpt>
      <trkpt lat="45.57144" lon="6.79781">
        <ele>2107.568</ele>
        <time>2020-12-06T12:38:13Z</time>
      </trkpt>
      <trkpt lat="45.57137" lon="6.79782">
        <ele>2107.927</ele>
        <time>2020-12-06T12:38:19Z</time>
      </trkpt>
      <trkpt lat="45.57131" lon="6.79784">
        <ele>2107.824</ele>
        <time>2020-12-06T12:38:24Z</time>
      </trkpt>
      <trkpt lat="45.57124" lon="6.79785">
        <ele>2107.584</ele>
        <time>2020-12-06T12:38:30Z</time>
      </trkpt>
      <trkpt lat="45.57117" lon="6.79787">
        <ele>2107.994</ele>
        <time>2020-12-06T12:38:36Z</time>
      </trkpt>
      <trkpt lat="45.57109" lon="6.7979">
        <ele>2108.415</ele>
        <time>2020-12-06T12:38:42Z</time>
      </trkpt>
      <trkpt lat="45.57103" lon="6.79794">
        <ele>2108.357</ele>
        <time>2020-12-06T12:38:49Z</time>
      </trkpt>
      <trkpt lat="45.57096" lon="6.79795">
        <ele>2109.346</ele>
        <time>2020-12-06T12:38:55Z</time>
      </trkpt>
      <trkpt lat="45.57089" lon="6.79796">
        <ele>2110.266</ele>
        <time>2020-12-06T12:39:02Z</time>
      </trkpt>
      <trkpt lat="45.57083" lon="6.79796">
        <ele>2110.534</ele>
        <time>2020-12-06T12:39:08Z</time>
      </trkpt>
      <trkpt lat="45.57075" lon="6.79795">
        <ele>2111.139</ele>
        <time>2020-12-06T12:39:15Z</time>
      </trkpt>
      <trkpt lat="45.57068" lon="6.79793">
        <ele>2111.276</ele>
        <time>2020-12-06T12:39:21Z</time>
      </trkpt>
      <trkpt lat="45.57061" lon="6.79792">
        <ele>2112.184</ele>
        <time>2020-12-06T12:39:27Z</time>
      </trkpt>
      <trkpt lat="45.57054" lon="6.79791">
        <ele>2113.163</ele>
        <time>2020-12-06T12:39:33Z</time>
      </trkpt>
      <trkpt lat="45.57047" lon="6.79789">
        <ele>2113.966</ele>
        <time>2020-12-06T12:39:40Z</time>
      </trkpt>
      <trkpt lat="45.57041" lon="6.79788">
        <ele>2115.503</ele>
        <time>2020-12-06T12:39:46Z</time>
      </trkpt>
      <trkpt lat="45.57033" lon="6.79784">
        <ele>2115.515</ele>
        <time>2020-12-06T12:39:52Z</time>
      </trkpt>
      <trkpt lat="45.57026" lon="6.7978">
        <ele>2115.801</ele>
        <time>2020-12-06T12:39:58Z</time>
      </trkpt>
      <trkpt lat="45.5702" lon="6.79775">
        <ele>2115.82</ele>
        <time>2020-12-06T12:40:04Z</time>
      </trkpt>
      <trkpt lat="45.57014" lon="6.7977">
        <ele>2116.372</ele>
        <time>2020-12-06T12:40:11Z</time>
      </trkpt>
      <trkpt lat="45.57009" lon="6.79763">
        <ele>2116.452</ele>
        <time>2020-12-06T12:41:30Z</time>
      </trkpt>
      <trkpt lat="45.57003" lon="6.79757">
        <ele>2117.494</ele>
        <time>2020-12-06T12:41:38Z</time>
      </trkpt>
      <trkpt lat="45.56998" lon="6.7975">
        <ele>2117.811</ele>
        <time>2020-12-06T12:41:45Z</time>
      </trkpt>
      <trkpt lat="45.56994" lon="6.79744">
        <ele>2118.592</ele>
        <time>2020-12-06T12:41:52Z</time>
      </trkpt>
      <trkpt lat="45.56989" lon="6.79737">
        <ele>2118.139</ele>
        <time>2020-12-06T12:41:59Z</time>
      </trkpt>
      <trkpt lat="45.56983" lon="6.79733">
        <ele>2118.555</ele>
        <time>2020-12-06T12:42:36Z</time>
      </trkpt>
      <trkpt lat="45.56978" lon="6.79726">
        <ele>2118.749</ele>
        <time>2020-12-06T12:42:45Z</time>
      </trkpt>
      <trkpt lat="45.56972" lon="6.79722">
        <ele>2118.729</ele>
        <time>2020-12-06T12:42:52Z</time>
      </trkpt>
      <trkpt lat="45.56966" lon="6.79718">
        <ele>2118.806</ele>
        <time>2020-12-06T12:42:58Z</time>
      </trkpt>
      <trkpt lat="45.56959" lon="6.79716">
        <ele>2117.982</ele>
        <time>2020-12-06T12:43:05Z</time>
      </trkpt>
      <trkpt lat="45.56952" lon="6.79715">
        <ele>2118.307</ele>
        <time>2020-12-06T12:43:11Z</time>
      </trkpt>
      <trkpt lat="45.56945" lon="6.79712">
        <ele>2118.632</ele>
        <time>2020-12-06T12:43:17Z</time>
      </trkpt>
      <trkpt lat="45.56938" lon="6.79709">
        <ele>2119.148</ele>
        <time>2020-12-06T12:43:23Z</time>
      </trkpt>
      <trkpt lat="45.56932" lon="6.79707">
        <ele>2119.23</ele>
        <time>2020-12-06T12:43:29Z</time>
      </trkpt>
      <trkpt lat="45.56925" lon="6.79705">
        <ele>2121.054</ele>
        <time>2020-12-06T12:43:40Z</time>
      </trkpt>
      <trkpt lat="45.56919" lon="6.79703">
        <ele>2122.13</ele>
        <time>2020-12-06T12:43:46Z</time>
      </trkpt>
      <trkpt lat="45.56912" lon="6.797">
        <ele>2122.429</ele>
        <time>2020-12-06T12:43:53Z</time>
      </trkpt>
      <trkpt lat="45.56905" lon="6.79698">
        <ele>2122.733</ele>
        <time>2020-12-06T12:44:01Z</time>
      </trkpt>
      <trkpt lat="45.56898" lon="6.79696">
        <ele>2123.206</ele>
        <time>2020-12-06T12:44:08Z</time>
      </trkpt>
      <trkpt lat="45.56892" lon="6.79693">
        <ele>2122.975</ele>
        <time>2020-12-06T12:44:14Z</time>
      </trkpt>
      <trkpt lat="45.56885" lon="6.79691">
        <ele>2122.943</ele>
        <time>2020-12-06T12:44:21Z</time>
      </trkpt>
      <trkpt lat="45.56879" lon="6.79688">
        <ele>2123.569</ele>
        <time>2020-12-06T12:44:27Z</time>
      </trkpt>
      <trkpt lat="45.56873" lon="6.79683">
        <ele>2124.325</ele>
        <time>2020-12-06T12:44:34Z</time>
      </trkpt>
      <trkpt lat="45.56866" lon="6.79679">
        <ele>2124.583</ele>
        <time>2020-12-06T12:44:41Z</time>
      </trkpt>
      <trkpt lat="45.56859" lon="6.79674">
        <ele>2124.539</ele>
        <time>2020-12-06T12:44:49Z</time>
      </trkpt>
      <trkpt lat="45.56855" lon="6.79666">
        <ele>2122.027</ele>
        <time>2020-12-06T12:45:30Z</time>
      </trkpt>
      <trkpt lat="45.5685" lon="6.79658">
        <ele>2122.648</ele>
        <time>2020-12-06T12:45:37Z</time>
      </trkpt>
      <trkpt lat="45.56846" lon="6.7965">
        <ele>2123.227</ele>
        <time>2020-12-06T12:45:44Z</time>
      </trkpt>
      <trkpt lat="45.56843" lon="6.79642">
        <ele>2123.321</ele>
        <time>2020-12-06T12:45:49Z</time>
      </trkpt>
      <trkpt lat="45.56838" lon="6.79634">
        <ele>2124.248</ele>
        <time>2020-12-06T12:45:56Z</time>
      </trkpt>
      <trkpt lat="45.56831" lon="6.79629">
        <ele>2124.448</ele>
        <time>2020-12-06T12:46:03Z</time>
      </trkpt>
      <trkpt lat="45.56825" lon="6.79625">
        <ele>2123.921</ele>
        <time>2020-12-06T12:46:09Z</time>
      </trkpt>
      <trkpt lat="45.56818" lon="6.79621">
        <ele>2124.923</ele>
        <time>2020-12-06T12:46:16Z</time>
      </trkpt>
      <trkpt lat="45.56811" lon="6.79619">
        <ele>2125.964</ele>
        <time>2020-12-06T12:46:22Z</time>
      </trkpt>
      <trkpt lat="45.56804" lon="6.79617">
        <ele>2126.321</ele>
        <time>2020-12-06T12:46:33Z</time>
      </trkpt>
      <trkpt lat="45.56797" lon="6.79616">
        <ele>2127.365</ele>
        <time>2020-12-06T12:46:40Z</time>
      </trkpt>
      <trkpt lat="45.56789" lon="6.79615">
        <ele>2127.5</ele>
        <time>2020-12-06T12:46:47Z</time>
      </trkpt>
      <trkpt lat="45.56782" lon="6.79614">
        <ele>2128.382</ele>
        <time>2020-12-06T12:46:53Z</time>
      </trkpt>
      <trkpt lat="45.56776" lon="6.79613">
        <ele>2129.34</ele>
        <time>2020-12-06T12:46:59Z</time>
      </trkpt>
      <trkpt lat="45.56769" lon="6.79614">
        <ele>2129.661</ele>
        <time>2020-12-06T12:47:05Z</time>
      </trkpt>
      <trkpt lat="45.56763" lon="6.79616">
        <ele>2129.365</ele>
        <time>2020-12-06T12:47:11Z</time>
      </trkpt>
      <trkpt lat="45.56756" lon="6.79618">
        <ele>2128.879</ele>
        <time>2020-12-06T12:47:17Z</time>
      </trkpt>
      <trkpt lat="45.56749" lon="6.79622">
        <ele>2130.447</ele>
        <time>2020-12-06T12:47:24Z</time>
      </trkpt>
      <trkpt lat="45.56743" lon="6.79627">
        <ele>2130.898</ele>
        <time>2020-12-06T12:47:31Z</time>
      </trkpt>
      <trkpt lat="45.56737" lon="6.79632">
        <ele>2129.95</ele>
        <time>2020-12-06T12:47:37Z</time>
      </trkpt>
      <trkpt lat="45.5673" lon="6.79637">
        <ele>2130.855</ele>
        <time>2020-12-06T12:47:43Z</time>
      </trkpt>
      <trkpt lat="45.56724" lon="6.79642">
        <ele>2131.374</ele>
        <time>2020-12-06T12:47:49Z</time>
      </trkpt>
      <trkpt lat="45.56718" lon="6.79648">
        <ele>2130.965</ele>
        <time>2020-12-06T12:47:55Z</time>
      </trkpt>
      <trkpt lat="45.56712" lon="6.79652">
        <ele>2130.316</ele>
        <time>2020-12-06T12:48:00Z</time>
      </trkpt>
      <trkpt lat="45.56706" lon="6.79657">
        <ele>2130.124</ele>
        <time>2020-12-06T12:48:06Z</time>
      </trkpt>
      <trkpt lat="45.567" lon="6.79662">
        <ele>2130.451</ele>
        <time>2020-12-06T12:48:12Z</time>
      </trkpt>
      <trkpt lat="45.56694" lon="6.79668">
        <ele>2130.402</ele>
        <time>2020-12-06T12:48:18Z</time>
      </trkpt>
      <trkpt lat="45.56688" lon="6.79674">
        <ele>2131.049</ele>
        <time>2020-12-06T12:48:24Z</time>
      </trkpt>
      <trkpt lat="45.56682" lon="6.7968">
        <ele>2130.562</ele>
        <time>2020-12-06T12:48:30Z</time>
      </trkpt>
      <trkpt lat="45.56676" lon="6.79686">
        <ele>2131.119</ele>
        <time>2020-12-06T12:48:36Z</time>
      </trkpt>
      <trkpt lat="45.5667" lon="6.79692">
        <ele>2131.491</ele>
        <time>2020-12-06T12:48:42Z</time>
      </trkpt>
      <trkpt lat="45.56664" lon="6.79698">
        <ele>2130.51</ele>
        <time>2020-12-06T12:48:48Z</time>
      </trkpt>
      <trkpt lat="45.56659" lon="6.79703">
        <ele>2130.433</ele>
        <time>2020-12-06T12:48:54Z</time>
      </trkpt>
      <trkpt lat="45.56652" lon="6.79708">
        <ele>2129.931</ele>
        <time>2020-12-06T12:49:00Z</time>
      </trkpt>
      <trkpt lat="45.56646" lon="6.79711">
        <ele>2131.322</ele>
        <time>2020-12-06T12:49:06Z</time>
      </trkpt>
      <trkpt lat="45.56639" lon="6.79713">
        <ele>2132.386</ele>
        <time>2020-12-06T12:49:14Z</time>
      </trkpt>
      <trkpt lat="45.56631" lon="6.79711">
        <ele>2132.621</ele>
        <time>2020-12-06T12:49:20Z</time>
      </trkpt>
      <trkpt lat="45.56624" lon="6.7971">
        <ele>2133.753</ele>
        <time>2020-12-06T12:49:26Z</time>
      </trkpt>
      <trkpt lat="45.56617" lon="6.79709">
        <ele>2135.144</ele>
        <time>2020-12-06T12:49:32Z</time>
      </trkpt>
      <trkpt lat="45.5661" lon="6.79707">
        <ele>2135.246</ele>
        <time>2020-12-06T12:49:39Z</time>
      </trkpt>
      <trkpt lat="45.56603" lon="6.79711">
        <ele>2136.266</ele>
        <time>2020-12-06T12:49:45Z</time>
      </trkpt>
      <trkpt lat="45.56598" lon="6.79716">
        <ele>2137.265</ele>
        <time>2020-12-06T12:49:51Z</time>
      </trkpt>
      <trkpt lat="45.56591" lon="6.79719">
        <ele>2137.771</ele>
        <time>2020-12-06T12:49:56Z</time>
      </trkpt>
      <trkpt lat="45.56585" lon="6.79724">
        <ele>2138.129</ele>
        <time>2020-12-06T12:50:02Z</time>
      </trkpt>
      <trkpt lat="45.56579" lon="6.79729">
        <ele>2138.321</ele>
        <time>2020-12-06T12:50:08Z</time>
      </trkpt>
      <trkpt lat="45.56572" lon="6.79733">
        <ele>2139.672</ele>
        <time>2020-12-06T12:50:14Z</time>
      </trkpt>
      <trkpt lat="45.56566" lon="6.79738">
        <ele>2139.531</ele>
        <time>2020-12-06T12:50:21Z</time>
      </trkpt>
      <trkpt lat="45.5656" lon="6.79743">
        <ele>2140.502</ele>
        <time>2020-12-06T12:50:27Z</time>
      </trkpt>
      <trkpt lat="45.56555" lon="6.79748">
        <ele>2140.414</ele>
        <time>2020-12-06T12:50:33Z</time>
      </trkpt>
      <trkpt lat="45.5655" lon="6.79755">
        <ele>2140.381</ele>
        <time>2020-12-06T12:50:39Z</time>
      </trkpt>
      <trkpt lat="45.56545" lon="6.79762">
        <ele>2141.278</ele>
        <time>2020-12-06T12:50:45Z</time>
      </trkpt>
      <trkpt lat="45.56541" lon="6.7977">
        <ele>2141.359</ele>
        <time>2020-12-06T12:50:52Z</time>
      </trkpt>
      <trkpt lat="45.56536" lon="6.79777">
        <ele>2141.19</ele>
        <time>2020-12-06T12:50:58Z</time>
      </trkpt>
      <trkpt lat="45.56531" lon="6.79782">
        <ele>2142.181</ele>
        <time>2020-12-06T12:51:04Z</time>
      </trkpt>
      <trkpt lat="45.56525" lon="6.79787">
        <ele>2142.503</ele>
        <time>2020-12-06T12:51:10Z</time>
      </trkpt>
      <trkpt lat="45.56519" lon="6.79791">
        <ele>2143.429</ele>
        <time>2020-12-06T12:51:16Z</time>
      </trkpt>
      <trkpt lat="45.56511" lon="6.79791">
        <ele>2144.324</ele>
        <time>2020-12-06T12:51:22Z</time>
      </trkpt>
      <trkpt lat="45.56505" lon="6.79789">
        <ele>2143.377</ele>
        <time>2020-12-06T12:51:29Z</time>
      </trkpt>
      <trkpt lat="45.56498" lon="6.79784">
        <ele>2143.416</ele>
        <time>2020-12-06T12:51:36Z</time>
      </trkpt>
      <trkpt lat="45.56492" lon="6.79777">
        <ele>2142.571</ele>
        <time>2020-12-06T12:51:43Z</time>
      </trkpt>
      <trkpt lat="45.56489" lon="6.79768">
        <ele>2141.018</ele>
        <time>2020-12-06T12:51:49Z</time>
      </trkpt>
      <trkpt lat="45.56487" lon="6.79759">
        <ele>2140.035</ele>
        <time>2020-12-06T12:51:54Z</time>
      </trkpt>
      <trkpt lat="45.56484" lon="6.7975">
        <ele>2139.875</ele>
        <time>2020-12-06T12:52:00Z</time>
      </trkpt>
      <trkpt lat="45.56479" lon="6.79742">
        <ele>2139.961</ele>
        <time>2020-12-06T12:52:06Z</time>
      </trkpt>
      <trkpt lat="45.56474" lon="6.79735">
        <ele>2140.083</ele>
        <time>2020-12-06T12:52:13Z</time>
      </trkpt>
      <trkpt lat="45.56468" lon="6.79731">
        <ele>2139.928</ele>
        <time>2020-12-06T12:52:19Z</time>
      </trkpt>
      <trkpt lat="45.56462" lon="6.79727">
        <ele>2140.011</ele>
        <time>2020-12-06T12:52:25Z</time>
      </trkpt>
      <trkpt lat="45.56455" lon="6.79722">
        <ele>2140.523</ele>
        <time>2020-12-06T12:52:32Z</time>
      </trkpt>
      <trkpt lat="45.56449" lon="6.79716">
        <ele>2141.699</ele>
        <time>2020-12-06T12:53:18Z</time>
      </trkpt>
      <trkpt lat="45.56443" lon="6.79713">
        <ele>2142.339</ele>
        <time>2020-12-06T12:53:24Z</time>
      </trkpt>
      <trkpt lat="45.56436" lon="6.79709">
        <ele>2142.656</ele>
        <time>2020-12-06T12:53:31Z</time>
      </trkpt>
      <trkpt lat="45.5643" lon="6.79706">
        <ele>2142.629</ele>
        <time>2020-12-06T12:53:37Z</time>
      </trkpt>
      <trkpt lat="45.56423" lon="6.79704">
        <ele>2143.24</ele>
        <time>2020-12-06T12:53:43Z</time>
      </trkpt>
      <trkpt lat="45.56416" lon="6.79704">
        <ele>2143.853</ele>
        <time>2020-12-06T12:53:49Z</time>
      </trkpt>
      <trkpt lat="45.56409" lon="6.79706">
        <ele>2144.318</ele>
        <time>2020-12-06T12:53:55Z</time>
      </trkpt>
      <trkpt lat="45.56403" lon="6.79709">
        <ele>2143.982</ele>
        <time>2020-12-06T12:55:07Z</time>
      </trkpt>
      <trkpt lat="45.56396" lon="6.79713">
        <ele>2145.352</ele>
        <time>2020-12-06T12:55:14Z</time>
      </trkpt>
      <trkpt lat="45.5639" lon="6.79717">
        <ele>2146.248</ele>
        <time>2020-12-06T12:55:23Z</time>
      </trkpt>
      <trkpt lat="45.56383" lon="6.79719">
        <ele>2145.57</ele>
        <time>2020-12-06T12:56:09Z</time>
      </trkpt>
      <trkpt lat="45.56376" lon="6.79719">
        <ele>2146.501</ele>
        <time>2020-12-06T12:56:16Z</time>
      </trkpt>
      <trkpt lat="45.56369" lon="6.7972">
        <ele>2146.699</ele>
        <time>2020-12-06T12:56:23Z</time>
      </trkpt>
      <trkpt lat="45.56362" lon="6.79721">
        <ele>2147.723</ele>
        <time>2020-12-06T12:56:30Z</time>
      </trkpt>
      <trkpt lat="45.56356" lon="6.79721">
        <ele>2147.345</ele>
        <time>2020-12-06T12:56:36Z</time>
      </trkpt>
      <trkpt lat="45.56348" lon="6.79722">
        <ele>2147.524</ele>
        <time>2020-12-06T12:56:43Z</time>
      </trkpt>
      <trkpt lat="45.56341" lon="6.79721">
        <ele>2147.764</ele>
        <time>2020-12-06T12:56:50Z</time>
      </trkpt>
      <trkpt lat="45.56334" lon="6.79721">
        <ele>2147.692</ele>
        <time>2020-12-06T12:56:56Z</time>
      </trkpt>
      <trkpt lat="45.56327" lon="6.7972">
        <ele>2147.461</ele>
        <time>2020-12-06T12:57:02Z</time>
      </trkpt>
      <trkpt lat="45.5632" lon="6.79719">
        <ele>2147.425</ele>
        <time>2020-12-06T12:57:08Z</time>
      </trkpt>
      <trkpt lat="45.56313" lon="6.79715">
        <ele>2145.715</ele>
        <time>2020-12-06T12:57:14Z</time>
      </trkpt>
      <trkpt lat="45.56307" lon="6.7971">
        <ele>2144.383</ele>
        <time>2020-12-06T12:57:20Z</time>
      </trkpt>
      <trkpt lat="45.563" lon="6.79704">
        <ele>2142.854</ele>
        <time>2020-12-06T12:57:26Z</time>
      </trkpt>
      <trkpt lat="45.56295" lon="6.79699">
        <ele>2141.501</ele>
        <time>2020-12-06T12:57:32Z</time>
      </trkpt>
      <trkpt lat="45.56288" lon="6.79696">
        <ele>2141.294</ele>
        <time>2020-12-06T12:57:38Z</time>
      </trkpt>
      <trkpt lat="45.56282" lon="6.7969">
        <ele>2141.052</ele>
        <time>2020-12-06T12:58:58Z</time>
      </trkpt>
      <trkpt lat="45.56275" lon="6.7969">
        <ele>2141.887</ele>
        <time>2020-12-06T12:59:05Z</time>
      </trkpt>
      <trkpt lat="45.56269" lon="6.79688">
        <ele>2142.084</ele>
        <time>2020-12-06T12:59:11Z</time>
      </trkpt>
      <trkpt lat="45.56262" lon="6.79685">
        <ele>2141.932</ele>
        <time>2020-12-06T12:59:17Z</time>
      </trkpt>
      <trkpt lat="45.56256" lon="6.79683">
        <ele>2142.123</ele>
        <time>2020-12-06T12:59:23Z</time>
      </trkpt>
      <trkpt lat="45.56249" lon="6.79681">
        <ele>2143.243</ele>
        <time>2020-12-06T12:59:29Z</time>
      </trkpt>
      <trkpt lat="45.56242" lon="6.7968">
        <ele>2143.845</ele>
        <time>2020-12-06T12:59:36Z</time>
      </trkpt>
      <trkpt lat="45.56236" lon="6.7968">
        <ele>2144.405</ele>
        <time>2020-12-06T12:59:43Z</time>
      </trkpt>
      <trkpt lat="45.56228" lon="6.7968">
        <ele>2144.872</ele>
        <time>2020-12-06T12:59:51Z</time>
      </trkpt>
      <trkpt lat="45.56222" lon="6.79677">
        <ele>2145.64</ele>
        <time>2020-12-06T13:00:03Z</time>
      </trkpt>
      <trkpt lat="45.56223" lon="6.79666">
        <ele>2142.915</ele>
        <time>2020-12-06T13:00:11Z</time>
      </trkpt>
      <trkpt lat="45.56221" lon="6.79651">
        <ele>2140.377</ele>
        <time>2020-12-06T13:00:16Z</time>
      </trkpt>
      <trkpt lat="45.56217" lon="6.79642">
        <ele>2140.708</ele>
        <time>2020-12-06T13:00:21Z</time>
      </trkpt>
      <trkpt lat="45.56218" lon="6.7963">
        <ele>2137.163</ele>
        <time>2020-12-06T13:00:31Z</time>
      </trkpt>
      <trkpt lat="45.56219" lon="6.79618">
        <ele>2134.386</ele>
        <time>2020-12-06T13:00:36Z</time>
      </trkpt>
      <trkpt lat="45.56218" lon="6.79608">
        <ele>2133.481</ele>
        <time>2020-12-06T13:00:41Z</time>
      </trkpt>
      <trkpt lat="45.56213" lon="6.79601">
        <ele>2131.547</ele>
        <time>2020-12-06T13:00:47Z</time>
      </trkpt>
      <trkpt lat="45.56208" lon="6.79593">
        <ele>2130.413</ele>
        <time>2020-12-06T13:00:53Z</time>
      </trkpt>
      <trkpt lat="45.56202" lon="6.79584">
        <ele>2129.428</ele>
        <time>2020-12-06T13:00:59Z</time>
      </trkpt>
      <trkpt lat="45.56197" lon="6.79577">
        <ele>2127.997</ele>
        <time>2020-12-06T13:01:05Z</time>
      </trkpt>
      <trkpt lat="45.56192" lon="6.79568">
        <ele>2125.9</ele>
        <time>2020-12-06T13:01:11Z</time>
      </trkpt>
      <trkpt lat="45.56187" lon="6.79562">
        <ele>2124.208</ele>
        <time>2020-12-06T13:01:16Z</time>
      </trkpt>
      <trkpt lat="45.56182" lon="6.79554">
        <ele>2123.438</ele>
        <time>2020-12-06T13:01:22Z</time>
      </trkpt>
      <trkpt lat="45.56178" lon="6.79546">
        <ele>2122.545</ele>
        <time>2020-12-06T13:01:27Z</time>
      </trkpt>
      <trkpt lat="45.56174" lon="6.79538">
        <ele>2121.608</ele>
        <time>2020-12-06T13:01:32Z</time>
      </trkpt>
      <trkpt lat="45.5617" lon="6.7953">
        <ele>2120.418</ele>
        <time>2020-12-06T13:01:37Z</time>
      </trkpt>
      <trkpt lat="45.56165" lon="6.79522">
        <ele>2120.079</ele>
        <time>2020-12-06T13:01:42Z</time>
      </trkpt>
      <trkpt lat="45.5616" lon="6.79514">
        <ele>2120.265</ele>
        <time>2020-12-06T13:01:47Z</time>
      </trkpt>
      <trkpt lat="45.56155" lon="6.79506">
        <ele>2120.338</ele>
        <time>2020-12-06T13:01:52Z</time>
      </trkpt>
      <trkpt lat="45.56151" lon="6.795">
        <ele>2120.63</ele>
        <time>2020-12-06T13:01:57Z</time>
      </trkpt>
      <trkpt lat="45.56147" lon="6.79491">
        <ele>2119.062</ele>
        <time>2020-12-06T13:02:03Z</time>
      </trkpt>
      <trkpt lat="45.56142" lon="6.79484">
        <ele>2117.834</ele>
        <time>2020-12-06T13:02:09Z</time>
      </trkpt>
      <trkpt lat="45.56134" lon="6.79483">
        <ele>2118.648</ele>
        <time>2020-12-06T13:02:15Z</time>
      </trkpt>
      <trkpt lat="45.56127" lon="6.79482">
        <ele>2120.138</ele>
        <time>2020-12-06T13:02:21Z</time>
      </trkpt>
      <trkpt lat="45.56121" lon="6.79482">
        <ele>2121.155</ele>
        <time>2020-12-06T13:02:27Z</time>
      </trkpt>
      <trkpt lat="45.56114" lon="6.7948">
        <ele>2122.762</ele>
        <time>2020-12-06T13:02:34Z</time>
      </trkpt>
      <trkpt lat="45.56107" lon="6.79477">
        <ele>2122.938</ele>
        <time>2020-12-06T13:02:40Z</time>
      </trkpt>
      <trkpt lat="45.561" lon="6.79473">
        <ele>2123.706</ele>
        <time>2020-12-06T13:02:47Z</time>
      </trkpt>
      <trkpt lat="45.56094" lon="6.79468">
        <ele>2123.581</ele>
        <time>2020-12-06T13:02:53Z</time>
      </trkpt>
      <trkpt lat="45.56089" lon="6.79463">
        <ele>2123.852</ele>
        <time>2020-12-06T13:02:59Z</time>
      </trkpt>
      <trkpt lat="45.56083" lon="6.79457">
        <ele>2124.194</ele>
        <time>2020-12-06T13:03:06Z</time>
      </trkpt>
      <trkpt lat="45.56078" lon="6.79451">
        <ele>2124.774</ele>
        <time>2020-12-06T13:03:13Z</time>
      </trkpt>
      <trkpt lat="45.56072" lon="6.79445">
        <ele>2124.887</ele>
        <time>2020-12-06T13:03:19Z</time>
      </trkpt>
      <trkpt lat="45.56066" lon="6.7944">
        <ele>2126.103</ele>
        <time>2020-12-06T13:03:26Z</time>
      </trkpt>
      <trkpt lat="45.5606" lon="6.79436">
        <ele>2126.716</ele>
        <time>2020-12-06T13:03:32Z</time>
      </trkpt>
      <trkpt lat="45.56054" lon="6.79431">
        <ele>2127.464</ele>
        <time>2020-12-06T13:03:38Z</time>
      </trkpt>
      <trkpt lat="45.56047" lon="6.79428">
        <ele>2128.577</ele>
        <time>2020-12-06T13:03:44Z</time>
      </trkpt>
      <trkpt lat="45.5604" lon="6.79426">
        <ele>2129.381</ele>
        <time>2020-12-06T13:03:50Z</time>
      </trkpt>
      <trkpt lat="45.56033" lon="6.79424">
        <ele>2130.132</ele>
        <time>2020-12-06T13:03:56Z</time>
      </trkpt>
      <trkpt lat="45.56026" lon="6.79423">
        <ele>2130.982</ele>
        <time>2020-12-06T13:04:02Z</time>
      </trkpt>
      <trkpt lat="45.5602" lon="6.79424">
        <ele>2132.72</ele>
        <time>2020-12-06T13:04:08Z</time>
      </trkpt>
      <trkpt lat="45.56012" lon="6.79425">
        <ele>2133.046</ele>
        <time>2020-12-06T13:04:14Z</time>
      </trkpt>
      <trkpt lat="45.56005" lon="6.79426">
        <ele>2133.236</ele>
        <time>2020-12-06T13:04:20Z</time>
      </trkpt>
      <trkpt lat="45.55998" lon="6.79426">
        <ele>2132.893</ele>
        <time>2020-12-06T13:04:26Z</time>
      </trkpt>
      <trkpt lat="45.55991" lon="6.79425">
        <ele>2133.102</ele>
        <time>2020-12-06T13:04:32Z</time>
      </trkpt>
      <trkpt lat="45.55984" lon="6.79422">
        <ele>2133.714</ele>
        <time>2020-12-06T13:04:38Z</time>
      </trkpt>
      <trkpt lat="45.55977" lon="6.79418">
        <ele>2134.553</ele>
        <time>2020-12-06T13:04:44Z</time>
      </trkpt>
      <trkpt lat="45.55971" lon="6.79415">
        <ele>2135.857</ele>
        <time>2020-12-06T13:04:50Z</time>
      </trkpt>
      <trkpt lat="45.55965" lon="6.79411">
        <ele>2136.683</ele>
        <time>2020-12-06T13:04:57Z</time>
      </trkpt>
      <trkpt lat="45.55958" lon="6.79407">
        <ele>2138.401</ele>
        <time>2020-12-06T13:05:05Z</time>
      </trkpt>
      <trkpt lat="45.55953" lon="6.79402">
        <ele>2140.26</ele>
        <time>2020-12-06T13:05:12Z</time>
      </trkpt>
      <trkpt lat="45.55947" lon="6.79396">
        <ele>2141.822</ele>
        <time>2020-12-06T13:05:20Z</time>
      </trkpt>
      <trkpt lat="45.55942" lon="6.7939">
        <ele>2143.705</ele>
        <time>2020-12-06T13:05:29Z</time>
      </trkpt>
      <trkpt lat="45.55936" lon="6.79385">
        <ele>2145.694</ele>
        <time>2020-12-06T13:05:38Z</time>
      </trkpt>
      <trkpt lat="45.5593" lon="6.79381">
        <ele>2148.287</ele>
        <time>2020-12-06T13:05:47Z</time>
      </trkpt>
      <trkpt lat="45.55924" lon="6.79374">
        <ele>2148.965</ele>
        <time>2020-12-06T13:05:57Z</time>
      </trkpt>
      <trkpt lat="45.55918" lon="6.7937">
        <ele>2150.354</ele>
        <time>2020-12-06T13:06:07Z</time>
      </trkpt>
      <trkpt lat="45.55914" lon="6.79362">
        <ele>2150.806</ele>
        <time>2020-12-06T13:06:16Z</time>
      </trkpt>
      <trkpt lat="45.55909" lon="6.79355">
        <ele>2151.473</ele>
        <time>2020-12-06T13:06:24Z</time>
      </trkpt>
      <trkpt lat="45.55904" lon="6.79349">
        <ele>2153.001</ele>
        <time>2020-12-06T13:06:43Z</time>
      </trkpt>
      <trkpt lat="45.55897" lon="6.79347">
        <ele>2153.902</ele>
        <time>2020-12-06T13:06:52Z</time>
      </trkpt>
      <trkpt lat="45.55891" lon="6.79345">
        <ele>2155.294</ele>
        <time>2020-12-06T13:07:01Z</time>
      </trkpt>
      <trkpt lat="45.55884" lon="6.79343">
        <ele>2157.359</ele>
        <time>2020-12-06T13:07:10Z</time>
      </trkpt>
      <trkpt lat="45.55877" lon="6.7934">
        <ele>2159.171</ele>
        <time>2020-12-06T13:07:19Z</time>
      </trkpt>
      <trkpt lat="45.55871" lon="6.79337">
        <ele>2160.354</ele>
        <time>2020-12-06T13:07:29Z</time>
      </trkpt>
      <trkpt lat="45.55864" lon="6.79336">
        <ele>2160.806</ele>
        <time>2020-12-06T13:07:36Z</time>
      </trkpt>
      <trkpt lat="45.55858" lon="6.79332">
        <ele>2161.998</ele>
        <time>2020-12-06T13:07:44Z</time>
      </trkpt>
      <trkpt lat="45.55851" lon="6.79333">
        <ele>2163.335</ele>
        <time>2020-12-06T13:07:53Z</time>
      </trkpt>
      <trkpt lat="45.55844" lon="6.79335">
        <ele>2165.041</ele>
        <time>2020-12-06T13:08:03Z</time>
      </trkpt>
      <trkpt lat="45.55837" lon="6.79336">
        <ele>2166.33</ele>
        <time>2020-12-06T13:08:13Z</time>
      </trkpt>
      <trkpt lat="45.55831" lon="6.79336">
        <ele>2168.384</ele>
        <time>2020-12-06T13:08:23Z</time>
      </trkpt>
      <trkpt lat="45.55825" lon="6.7934">
        <ele>2169.184</ele>
        <time>2020-12-06T13:08:34Z</time>
      </trkpt>
      <trkpt lat="45.55821" lon="6.79349">
        <ele>2171.136</ele>
        <time>2020-12-06T13:08:45Z</time>
      </trkpt>
      <trkpt lat="45.55815" lon="6.79354">
        <ele>2174.46</ele>
        <time>2020-12-06T13:08:56Z</time>
      </trkpt>
      <trkpt lat="45.55812" lon="6.79363">
        <ele>2176.056</ele>
        <time>2020-12-06T13:09:05Z</time>
      </trkpt>
      <trkpt lat="45.55807" lon="6.7937">
        <ele>2176.833</ele>
        <time>2020-12-06T13:09:14Z</time>
      </trkpt>
      <trkpt lat="45.55801" lon="6.79375">
        <ele>2178.146</ele>
        <time>2020-12-06T13:09:22Z</time>
      </trkpt>
      <trkpt lat="45.55796" lon="6.7938">
        <ele>2179.621</ele>
        <time>2020-12-06T13:09:29Z</time>
      </trkpt>
      <trkpt lat="45.55789" lon="6.79385">
        <ele>2179.733</ele>
        <time>2020-12-06T13:09:36Z</time>
      </trkpt>
      <trkpt lat="45.55784" lon="6.79391">
        <ele>2179.085</ele>
        <time>2020-12-06T13:09:43Z</time>
      </trkpt>
      <trkpt lat="45.55779" lon="6.79397">
        <ele>2179.716</ele>
        <time>2020-12-06T13:09:50Z</time>
      </trkpt>
      <trkpt lat="45.55773" lon="6.79404">
        <ele>2181.021</ele>
        <time>2020-12-06T13:09:57Z</time>
      </trkpt>
      <trkpt lat="45.55768" lon="6.7941">
        <ele>2181.759</ele>
        <time>2020-12-06T13:10:04Z</time>
      </trkpt>
      <trkpt lat="45.55762" lon="6.79416">
        <ele>2183.145</ele>
        <time>2020-12-06T13:10:11Z</time>
      </trkpt>
      <trkpt lat="45.55755" lon="6.79419">
        <ele>2182.389</ele>
        <time>2020-12-06T13:10:17Z</time>
      </trkpt>
      <trkpt lat="45.55749" lon="6.79422">
        <ele>2183.136</ele>
        <time>2020-12-06T13:10:23Z</time>
      </trkpt>
      <trkpt lat="45.55742" lon="6.79425">
        <ele>2183.511</ele>
        <time>2020-12-06T13:10:29Z</time>
      </trkpt>
      <trkpt lat="45.55735" lon="6.79426">
        <ele>2184.099</ele>
        <time>2020-12-06T13:10:36Z</time>
      </trkpt>
      <trkpt lat="45.55729" lon="6.79426">
        <ele>2185.085</ele>
        <time>2020-12-06T13:10:43Z</time>
      </trkpt>
      <trkpt lat="45.55722" lon="6.79425">
        <ele>2186.74</ele>
        <time>2020-12-06T13:10:51Z</time>
      </trkpt>
      <trkpt lat="45.55715" lon="6.79423">
        <ele>2186.462</ele>
        <time>2020-12-06T13:10:59Z</time>
      </trkpt>
      <trkpt lat="45.55709" lon="6.79421">
        <ele>2187.316</ele>
        <time>2020-12-06T13:11:06Z</time>
      </trkpt>
      <trkpt lat="45.55702" lon="6.79419">
        <ele>2188.941</ele>
        <time>2020-12-06T13:11:15Z</time>
      </trkpt>
      <trkpt lat="45.55695" lon="6.79419">
        <ele>2189.539</ele>
        <time>2020-12-06T13:11:23Z</time>
      </trkpt>
      <trkpt lat="45.55688" lon="6.79418">
        <ele>2189.827</ele>
        <time>2020-12-06T13:11:30Z</time>
      </trkpt>
      <trkpt lat="45.55681" lon="6.79418">
        <ele>2190.351</ele>
        <time>2020-12-06T13:11:37Z</time>
      </trkpt>
      <trkpt lat="45.55675" lon="6.79419">
        <ele>2191.479</ele>
        <time>2020-12-06T13:11:44Z</time>
      </trkpt>
      <trkpt lat="45.55668" lon="6.79419">
        <ele>2191.919</ele>
        <time>2020-12-06T13:11:51Z</time>
      </trkpt>
      <trkpt lat="45.55661" lon="6.79419">
        <ele>2192.742</ele>
        <time>2020-12-06T13:11:58Z</time>
      </trkpt>
      <trkpt lat="45.55654" lon="6.7942">
        <ele>2193.597</ele>
        <time>2020-12-06T13:12:05Z</time>
      </trkpt>
      <trkpt lat="45.55648" lon="6.79422">
        <ele>2194.319</ele>
        <time>2020-12-06T13:12:12Z</time>
      </trkpt>
      <trkpt lat="45.55641" lon="6.79424">
        <ele>2195.238</ele>
        <time>2020-12-06T13:12:19Z</time>
      </trkpt>
      <trkpt lat="45.55634" lon="6.79425">
        <ele>2196.326</ele>
        <time>2020-12-06T13:12:25Z</time>
      </trkpt>
      <trkpt lat="45.55627" lon="6.79425">
        <ele>2197.071</ele>
        <time>2020-12-06T13:12:31Z</time>
      </trkpt>
      <trkpt lat="45.55621" lon="6.79425">
        <ele>2197.204</ele>
        <time>2020-12-06T13:12:38Z</time>
      </trkpt>
      <trkpt lat="45.55614" lon="6.79422">
        <ele>2197.25</ele>
        <time>2020-12-06T13:12:47Z</time>
      </trkpt>
      <trkpt lat="45.55608" lon="6.79418">
        <ele>2196.646</ele>
        <time>2020-12-06T13:12:55Z</time>
      </trkpt>
      <trkpt lat="45.55602" lon="6.79414">
        <ele>2196.727</ele>
        <time>2020-12-06T13:13:03Z</time>
      </trkpt>
      <trkpt lat="45.55595" lon="6.79412">
        <ele>2197.479</ele>
        <time>2020-12-06T13:13:11Z</time>
      </trkpt>
      <trkpt lat="45.55589" lon="6.79407">
        <ele>2198.822</ele>
        <time>2020-12-06T13:13:19Z</time>
      </trkpt>
      <trkpt lat="45.55583" lon="6.79402">
        <ele>2198.806</ele>
        <time>2020-12-06T13:13:27Z</time>
      </trkpt>
      <trkpt lat="45.55577" lon="6.79398">
        <ele>2199.556</ele>
        <time>2020-12-06T13:13:35Z</time>
      </trkpt>
      <trkpt lat="45.5557" lon="6.79395">
        <ele>2201.563</ele>
        <time>2020-12-06T13:13:45Z</time>
      </trkpt>
      <trkpt lat="45.55563" lon="6.79394">
        <ele>2204.84</ele>
        <time>2020-12-06T13:13:57Z</time>
      </trkpt>
      <trkpt lat="45.55557" lon="6.79397">
        <ele>2207.883</ele>
        <time>2020-12-06T13:14:07Z</time>
      </trkpt>
      <trkpt lat="45.55551" lon="6.794">
        <ele>2210.72</ele>
        <time>2020-12-06T13:14:19Z</time>
      </trkpt>
      <trkpt lat="45.55544" lon="6.79403">
        <ele>2213.333</ele>
        <time>2020-12-06T13:14:32Z</time>
      </trkpt>
      <trkpt lat="45.55538" lon="6.79405">
        <ele>2214.625</ele>
        <time>2020-12-06T13:14:43Z</time>
      </trkpt>
      <trkpt lat="45.55531" lon="6.79407">
        <ele>2216.7</ele>
        <time>2020-12-06T13:14:57Z</time>
      </trkpt>
      <trkpt lat="45.55524" lon="6.79409">
        <ele>2217.862</ele>
        <time>2020-12-06T13:15:10Z</time>
      </trkpt>
      <trkpt lat="45.55518" lon="6.79411">
        <ele>2220.187</ele>
        <time>2020-12-06T13:15:24Z</time>
      </trkpt>
      <trkpt lat="45.55511" lon="6.79415">
        <ele>2223.28</ele>
        <time>2020-12-06T13:15:38Z</time>
      </trkpt>
      <trkpt lat="45.55505" lon="6.79419">
        <ele>2225.374</ele>
        <time>2020-12-06T13:15:50Z</time>
      </trkpt>
      <trkpt lat="45.55499" lon="6.79424">
        <ele>2227.449</ele>
        <time>2020-12-06T13:16:05Z</time>
      </trkpt>
      <trkpt lat="45.55494" lon="6.7943">
        <ele>2229.582</ele>
        <time>2020-12-06T13:16:17Z</time>
      </trkpt>
      <trkpt lat="45.55488" lon="6.79436">
        <ele>2230.657</ele>
        <time>2020-12-06T13:16:29Z</time>
      </trkpt>
      <trkpt lat="45.55486" lon="6.79445">
        <ele>2232.774</ele>
        <time>2020-12-06T13:16:39Z</time>
      </trkpt>
      <trkpt lat="45.55484" lon="6.79454">
        <ele>2234.636</ele>
        <time>2020-12-06T13:16:50Z</time>
      </trkpt>
      <trkpt lat="45.55481" lon="6.79462">
        <ele>2234.782</ele>
        <time>2020-12-06T13:17:00Z</time>
      </trkpt>
      <trkpt lat="45.55477" lon="6.7947">
        <ele>2235.954</ele>
        <time>2020-12-06T13:17:11Z</time>
      </trkpt>
      <trkpt lat="45.55473" lon="6.79478">
        <ele>2238.442</ele>
        <time>2020-12-06T13:17:22Z</time>
      </trkpt>
      <trkpt lat="45.5547" lon="6.79487">
        <ele>2240.744</ele>
        <time>2020-12-06T13:17:32Z</time>
      </trkpt>
      <trkpt lat="45.55467" lon="6.79495">
        <ele>2242.044</ele>
        <time>2020-12-06T13:17:44Z</time>
      </trkpt>
      <trkpt lat="45.55464" lon="6.79505">
        <ele>2243.729</ele>
        <time>2020-12-06T13:17:55Z</time>
      </trkpt>
      <trkpt lat="45.55463" lon="6.79514">
        <ele>2244.567</ele>
        <time>2020-12-06T13:18:06Z</time>
      </trkpt>
      <trkpt lat="45.55459" lon="6.79522">
        <ele>2246.423</ele>
        <time>2020-12-06T13:18:19Z</time>
      </trkpt>
      <trkpt lat="45.55457" lon="6.79531">
        <ele>2248.297</ele>
        <time>2020-12-06T13:18:31Z</time>
      </trkpt>
      <trkpt lat="45.55454" lon="6.7954">
        <ele>2250.381</ele>
        <time>2020-12-06T13:18:43Z</time>
      </trkpt>
      <trkpt lat="45.55451" lon="6.79549">
        <ele>2251.461</ele>
        <time>2020-12-06T13:18:55Z</time>
      </trkpt>
      <trkpt lat="45.55449" lon="6.79558">
        <ele>2252.499</ele>
        <time>2020-12-06T13:19:07Z</time>
      </trkpt>
      <trkpt lat="45.55446" lon="6.79566">
        <ele>2255.141</ele>
        <time>2020-12-06T13:19:19Z</time>
      </trkpt>
      <trkpt lat="45.55443" lon="6.79575">
        <ele>2257.269</ele>
        <time>2020-12-06T13:19:29Z</time>
      </trkpt>
      <trkpt lat="45.55442" lon="6.79585">
        <ele>2258.247</ele>
        <time>2020-12-06T13:19:39Z</time>
      </trkpt>
      <trkpt lat="45.55439" lon="6.79594">
        <ele>2259.15</ele>
        <time>2020-12-06T13:19:49Z</time>
      </trkpt>
      <trkpt lat="45.55438" lon="6.79604">
        <ele>2260.633</ele>
        <time>2020-12-06T13:19:59Z</time>
      </trkpt>
      <trkpt lat="45.55436" lon="6.79614">
        <ele>2262.177</ele>
        <time>2020-12-06T13:20:08Z</time>
      </trkpt>
      <trkpt lat="45.55436" lon="6.79623">
        <ele>2262.67</ele>
        <time>2020-12-06T13:20:18Z</time>
      </trkpt>
      <trkpt lat="45.55435" lon="6.79634">
        <ele>2264.662</ele>
        <time>2020-12-06T13:20:28Z</time>
      </trkpt>
      <trkpt lat="45.55435" lon="6.79643">
        <ele>2265.393</ele>
        <time>2020-12-06T13:20:37Z</time>
      </trkpt>
      <trkpt lat="45.55436" lon="6.79653">
        <ele>2267.054</ele>
        <time>2020-12-06T13:20:48Z</time>
      </trkpt>
      <trkpt lat="45.55436" lon="6.79663">
        <ele>2267.838</ele>
        <time>2020-12-06T13:20:58Z</time>
      </trkpt>
      <trkpt lat="45.55438" lon="6.79672">
        <ele>2270.015</ele>
        <time>2020-12-06T13:21:10Z</time>
      </trkpt>
      <trkpt lat="45.5544" lon="6.79681">
        <ele>2272.817</ele>
        <time>2020-12-06T13:21:23Z</time>
      </trkpt>
      <trkpt lat="45.55443" lon="6.79689">
        <ele>2273.658</ele>
        <time>2020-12-06T13:21:36Z</time>
      </trkpt>
      <trkpt lat="45.55447" lon="6.79696">
        <ele>2276.657</ele>
        <time>2020-12-06T13:21:47Z</time>
      </trkpt>
      <trkpt lat="45.55451" lon="6.79704">
        <ele>2277.884</ele>
        <time>2020-12-06T13:21:58Z</time>
      </trkpt>
      <trkpt lat="45.55456" lon="6.79711">
        <ele>2279.279</ele>
        <time>2020-12-06T13:22:24Z</time>
      </trkpt>
      <trkpt lat="45.5546" lon="6.79719">
        <ele>2279.618</ele>
        <time>2020-12-06T13:22:35Z</time>
      </trkpt>
      <trkpt lat="45.55464" lon="6.79726">
        <ele>2280.227</ele>
        <time>2020-12-06T13:22:46Z</time>
      </trkpt>
      <trkpt lat="45.55469" lon="6.79733">
        <ele>2282.087</ele>
        <time>2020-12-06T13:22:58Z</time>
      </trkpt>
      <trkpt lat="45.55474" lon="6.79741">
        <ele>2282.847</ele>
        <time>2020-12-06T13:23:10Z</time>
      </trkpt>
      <trkpt lat="45.55477" lon="6.79749">
        <ele>2284.982</ele>
        <time>2020-12-06T13:23:21Z</time>
      </trkpt>
      <trkpt lat="45.55481" lon="6.79756">
        <ele>2285.074</ele>
        <time>2020-12-06T13:23:32Z</time>
      </trkpt>
      <trkpt lat="45.55486" lon="6.79763">
        <ele>2287.296</ele>
        <time>2020-12-06T13:23:44Z</time>
      </trkpt>
      <trkpt lat="45.55491" lon="6.79769">
        <ele>2289.335</ele>
        <time>2020-12-06T13:23:57Z</time>
      </trkpt>
      <trkpt lat="45.55494" lon="6.79777">
        <ele>2291.713</ele>
        <time>2020-12-06T13:24:07Z</time>
      </trkpt>
      <trkpt lat="45.55499" lon="6.79785">
        <ele>2294.129</ele>
        <time>2020-12-06T13:24:19Z</time>
      </trkpt>
      <trkpt lat="45.55502" lon="6.79793">
        <ele>2295.939</ele>
        <time>2020-12-06T13:24:30Z</time>
      </trkpt>
      <trkpt lat="45.55506" lon="6.79801">
        <ele>2297.545</ele>
        <time>2020-12-06T13:24:41Z</time>
      </trkpt>
      <trkpt lat="45.5551" lon="6.79809">
        <ele>2297.819</ele>
        <time>2020-12-06T13:24:51Z</time>
      </trkpt>
      <trkpt lat="45.55513" lon="6.79816">
        <ele>2299.224</ele>
        <time>2020-12-06T13:25:01Z</time>
      </trkpt>
      <trkpt lat="45.55517" lon="6.79825">
        <ele>2300.901</ele>
        <time>2020-12-06T13:25:13Z</time>
      </trkpt>
      <trkpt lat="45.5552" lon="6.79833">
        <ele>2303.165</ele>
        <time>2020-12-06T13:25:22Z</time>
      </trkpt>
      <trkpt lat="45.55524" lon="6.79841">
        <ele>2305.459</ele>
        <time>2020-12-06T13:25:31Z</time>
      </trkpt>
      <trkpt lat="45.55529" lon="6.79847">
        <ele>2307.807</ele>
        <time>2020-12-06T13:25:42Z</time>
      </trkpt>
      <trkpt lat="45.55535" lon="6.79852">
        <ele>2310.5</ele>
        <time>2020-12-06T13:25:52Z</time>
      </trkpt>
      <trkpt lat="45.55541" lon="6.79855">
        <ele>2312.733</ele>
        <time>2020-12-06T13:26:04Z</time>
      </trkpt>
      <trkpt lat="45.55548" lon="6.79859">
        <ele>2315.034</ele>
        <time>2020-12-06T13:26:15Z</time>
      </trkpt>
      <trkpt lat="45.55554" lon="6.79861">
        <ele>2314.468</ele>
        <time>2020-12-06T13:26:25Z</time>
      </trkpt>
      <trkpt lat="45.55561" lon="6.79865">
        <ele>2315.66</ele>
        <time>2020-12-06T13:26:37Z</time>
      </trkpt>
      <trkpt lat="45.55566" lon="6.7987">
        <ele>2315.758</ele>
        <time>2020-12-06T13:26:49Z</time>
      </trkpt>
      <trkpt lat="45.55573" lon="6.7987">
        <ele>2316.822</ele>
        <time>2020-12-06T13:27:00Z</time>
      </trkpt>
      <trkpt lat="45.5558" lon="6.79869">
        <ele>2317.155</ele>
        <time>2020-12-06T13:27:10Z</time>
      </trkpt>
      <trkpt lat="45.55586" lon="6.7987">
        <ele>2319.021</ele>
        <time>2020-12-06T13:27:21Z</time>
      </trkpt>
      <trkpt lat="45.55593" lon="6.7987">
        <ele>2320.258</ele>
        <time>2020-12-06T13:27:31Z</time>
      </trkpt>
      <trkpt lat="45.55599" lon="6.79874">
        <ele>2321.896</ele>
        <time>2020-12-06T13:27:42Z</time>
      </trkpt>
      <trkpt lat="45.55606" lon="6.79874">
        <ele>2323.825</ele>
        <time>2020-12-06T13:27:53Z</time>
      </trkpt>
      <trkpt lat="45.55612" lon="6.79875">
        <ele>2325.342</ele>
        <time>2020-12-06T13:28:03Z</time>
      </trkpt>
      <trkpt lat="45.55619" lon="6.79875">
        <ele>2326.757</ele>
        <time>2020-12-06T13:28:12Z</time>
      </trkpt>
      <trkpt lat="45.55626" lon="6.79872">
        <ele>2327.825</ele>
        <time>2020-12-06T13:28:21Z</time>
      </trkpt>
      <trkpt lat="45.55632" lon="6.7987">
        <ele>2328.399</ele>
        <time>2020-12-06T13:28:31Z</time>
      </trkpt>
      <trkpt lat="45.55638" lon="6.79869">
        <ele>2330.084</ele>
        <time>2020-12-06T13:28:42Z</time>
      </trkpt>
      <trkpt lat="45.5564" lon="6.7986">
        <ele>2332.295</ele>
        <time>2020-12-06T13:39:17Z</time>
      </trkpt>
      <trkpt lat="45.55636" lon="6.79852">
        <ele>2330.835</ele>
        <time>2020-12-06T13:39:24Z</time>
      </trkpt>
      <trkpt lat="45.55634" lon="6.79842">
        <ele>2331.576</ele>
        <time>2020-12-06T13:39:32Z</time>
      </trkpt>
      <trkpt lat="45.55633" lon="6.79832">
        <ele>2332.794</ele>
        <time>2020-12-06T13:39:40Z</time>
      </trkpt>
      <trkpt lat="45.55633" lon="6.79821">
        <ele>2333.626</ele>
        <time>2020-12-06T13:39:48Z</time>
      </trkpt>
      <trkpt lat="45.55632" lon="6.79812">
        <ele>2335.47</ele>
        <time>2020-12-06T13:40:02Z</time>
      </trkpt>
      <trkpt lat="45.55633" lon="6.79802">
        <ele>2338.292</ele>
        <time>2020-12-06T13:40:15Z</time>
      </trkpt>
      <trkpt lat="45.55637" lon="6.7981">
        <ele>2335.571</ele>
        <time>2020-12-06T13:40:58Z</time>
      </trkpt>
      <trkpt lat="45.55636" lon="6.7982">
        <ele>2334.702</ele>
        <time>2020-12-06T13:41:09Z</time>
      </trkpt>
      <trkpt lat="45.55631" lon="6.79828">
        <ele>2332.003</ele>
        <time>2020-12-06T13:41:15Z</time>
      </trkpt>
      <trkpt lat="45.55626" lon="6.79823">
        <ele>2332.27</ele>
        <time>2020-12-06T13:41:21Z</time>
      </trkpt>
      <trkpt lat="45.55622" lon="6.79815">
        <ele>2329.387</ele>
        <time>2020-12-06T13:41:28Z</time>
      </trkpt>
      <trkpt lat="45.55616" lon="6.79811">
        <ele>2329.577</ele>
        <time>2020-12-06T13:41:33Z</time>
      </trkpt>
      <trkpt lat="45.55613" lon="6.79802">
        <ele>2329.753</ele>
        <time>2020-12-06T13:41:39Z</time>
      </trkpt>
      <trkpt lat="45.55608" lon="6.79807">
        <ele>2331.139</ele>
        <time>2020-12-06T13:42:29Z</time>
      </trkpt>
      <trkpt lat="45.55603" lon="6.79816">
        <ele>2329.323</ele>
        <time>2020-12-06T13:42:34Z</time>
      </trkpt>
      <trkpt lat="45.55604" lon="6.79826">
        <ele>2328.005</ele>
        <time>2020-12-06T13:42:39Z</time>
      </trkpt>
      <trkpt lat="45.55606" lon="6.79836">
        <ele>2328.797</ele>
        <time>2020-12-06T13:42:45Z</time>
      </trkpt>
      <trkpt lat="45.55603" lon="6.79846">
        <ele>2327.042</ele>
        <time>2020-12-06T13:42:51Z</time>
      </trkpt>
      <trkpt lat="45.55596" lon="6.79847">
        <ele>2324.312</ele>
        <time>2020-12-06T13:42:56Z</time>
      </trkpt>
      <trkpt lat="45.55588" lon="6.79847">
        <ele>2322.041</ele>
        <time>2020-12-06T13:43:01Z</time>
      </trkpt>
      <trkpt lat="45.5558" lon="6.79849">
        <ele>2321.251</ele>
        <time>2020-12-06T13:43:10Z</time>
      </trkpt>
      <trkpt lat="45.55574" lon="6.79847">
        <ele>2319.463</ele>
        <time>2020-12-06T13:43:19Z</time>
      </trkpt>
      <trkpt lat="45.55568" lon="6.79842">
        <ele>2317.291</ele>
        <time>2020-12-06T13:43:26Z</time>
      </trkpt>
      <trkpt lat="45.55561" lon="6.79838">
        <ele>2315.406</ele>
        <time>2020-12-06T13:43:33Z</time>
      </trkpt>
      <trkpt lat="45.55554" lon="6.79834">
        <ele>2313.376</ele>
        <time>2020-12-06T13:43:40Z</time>
      </trkpt>
      <trkpt lat="45.55547" lon="6.79835">
        <ele>2311.517</ele>
        <time>2020-12-06T13:43:47Z</time>
      </trkpt>
      <trkpt lat="45.55539" lon="6.79833">
        <ele>2309.275</ele>
        <time>2020-12-06T13:43:55Z</time>
      </trkpt>
      <trkpt lat="45.55533" lon="6.79831">
        <ele>2307.518</ele>
        <time>2020-12-06T13:44:04Z</time>
      </trkpt>
      <trkpt lat="45.55527" lon="6.79827">
        <ele>2304.809</ele>
        <time>2020-12-06T13:44:11Z</time>
      </trkpt>
      <trkpt lat="45.55521" lon="6.79822">
        <ele>2303.7</ele>
        <time>2020-12-06T13:44:18Z</time>
      </trkpt>
      <trkpt lat="45.55515" lon="6.79815">
        <ele>2302.846</ele>
        <time>2020-12-06T13:44:24Z</time>
      </trkpt>
      <trkpt lat="45.55512" lon="6.79806">
        <ele>2301.787</ele>
        <time>2020-12-06T13:44:30Z</time>
      </trkpt>
      <trkpt lat="45.5551" lon="6.79796">
        <ele>2301.093</ele>
        <time>2020-12-06T13:44:36Z</time>
      </trkpt>
      <trkpt lat="45.55507" lon="6.79788">
        <ele>2300.125</ele>
        <time>2020-12-06T13:44:41Z</time>
      </trkpt>
      <trkpt lat="45.55505" lon="6.79779">
        <ele>2299.209</ele>
        <time>2020-12-06T13:44:46Z</time>
      </trkpt>
      <trkpt lat="45.55502" lon="6.79768">
        <ele>2298.206</ele>
        <time>2020-12-06T13:44:52Z</time>
      </trkpt>
      <trkpt lat="45.55497" lon="6.79763">
        <ele>2294.872</ele>
        <time>2020-12-06T13:45:14Z</time>
      </trkpt>
      <trkpt lat="45.55491" lon="6.79756">
        <ele>2293.282</ele>
        <time>2020-12-06T13:45:20Z</time>
      </trkpt>
      <trkpt lat="45.55487" lon="6.79749">
        <ele>2292.175</ele>
        <time>2020-12-06T13:45:27Z</time>
      </trkpt>
      <trkpt lat="45.5548" lon="6.7975">
        <ele>2291.219</ele>
        <time>2020-12-06T13:45:48Z</time>
      </trkpt>
      <trkpt lat="45.55475" lon="6.79756">
        <ele>2290.374</ele>
        <time>2020-12-06T13:45:56Z</time>
      </trkpt>
      <trkpt lat="45.55476" lon="6.79746">
        <ele>2287.735</ele>
        <time>2020-12-06T13:46:54Z</time>
      </trkpt>
      <trkpt lat="45.55475" lon="6.79737">
        <ele>2286.754</ele>
        <time>2020-12-06T13:47:00Z</time>
      </trkpt>
      <trkpt lat="45.5547" lon="6.7973">
        <ele>2285.275</ele>
        <time>2020-12-06T13:47:07Z</time>
      </trkpt>
      <trkpt lat="45.55465" lon="6.79722">
        <ele>2283.66</ele>
        <time>2020-12-06T13:47:14Z</time>
      </trkpt>
      <trkpt lat="45.55459" lon="6.79718">
        <ele>2281.915</ele>
        <time>2020-12-06T13:47:21Z</time>
      </trkpt>
      <trkpt lat="45.55454" lon="6.7971">
        <ele>2281.486</ele>
        <time>2020-12-06T13:47:27Z</time>
      </trkpt>
      <trkpt lat="45.55449" lon="6.79702">
        <ele>2278.519</ele>
        <time>2020-12-06T13:47:38Z</time>
      </trkpt>
      <trkpt lat="45.55445" lon="6.79695">
        <ele>2277.074</ele>
        <time>2020-12-06T13:47:44Z</time>
      </trkpt>
      <trkpt lat="45.55441" lon="6.79686">
        <ele>2275.377</ele>
        <time>2020-12-06T13:47:50Z</time>
      </trkpt>
      <trkpt lat="45.55439" lon="6.79677">
        <ele>2273.065</ele>
        <time>2020-12-06T13:47:57Z</time>
      </trkpt>
      <trkpt lat="45.55435" lon="6.79669">
        <ele>2271.169</ele>
        <time>2020-12-06T13:48:04Z</time>
      </trkpt>
      <trkpt lat="45.55434" lon="6.79659">
        <ele>2269.535</ele>
        <time>2020-12-06T13:48:10Z</time>
      </trkpt>
      <trkpt lat="45.55435" lon="6.79649">
        <ele>2267.082</ele>
        <time>2020-12-06T13:48:49Z</time>
      </trkpt>
      <trkpt lat="45.55433" lon="6.79639">
        <ele>2265.381</ele>
        <time>2020-12-06T13:48:55Z</time>
      </trkpt>
      <trkpt lat="45.55434" lon="6.79629">
        <ele>2263.677</ele>
        <time>2020-12-06T13:49:01Z</time>
      </trkpt>
      <trkpt lat="45.55434" lon="6.79619">
        <ele>2262.398</ele>
        <time>2020-12-06T13:49:06Z</time>
      </trkpt>
      <trkpt lat="45.55436" lon="6.79609">
        <ele>2261.966</ele>
        <time>2020-12-06T13:49:11Z</time>
      </trkpt>
      <trkpt lat="45.55437" lon="6.79599">
        <ele>2261.122</ele>
        <time>2020-12-06T13:49:16Z</time>
      </trkpt>
      <trkpt lat="45.55438" lon="6.79588">
        <ele>2260.014</ele>
        <time>2020-12-06T13:49:22Z</time>
      </trkpt>
      <trkpt lat="45.55438" lon="6.79579">
        <ele>2257.895</ele>
        <time>2020-12-06T13:49:30Z</time>
      </trkpt>
      <trkpt lat="45.55434" lon="6.79572">
        <ele>2257.445</ele>
        <time>2020-12-06T13:49:37Z</time>
      </trkpt>
      <trkpt lat="45.55439" lon="6.79566">
        <ele>2255.674</ele>
        <time>2020-12-06T13:49:45Z</time>
      </trkpt>
      <trkpt lat="45.5544" lon="6.79556">
        <ele>2254.593</ele>
        <time>2020-12-06T13:49:53Z</time>
      </trkpt>
      <trkpt lat="45.55444" lon="6.79549">
        <ele>2252.848</ele>
        <time>2020-12-06T13:50:01Z</time>
      </trkpt>
      <trkpt lat="45.55445" lon="6.7954">
        <ele>2251.387</ele>
        <time>2020-12-06T13:50:08Z</time>
      </trkpt>
      <trkpt lat="45.55449" lon="6.79531">
        <ele>2248.947</ele>
        <time>2020-12-06T13:50:15Z</time>
      </trkpt>
      <trkpt lat="45.55455" lon="6.7952">
        <ele>2246.487</ele>
        <time>2020-12-06T13:50:20Z</time>
      </trkpt>
      <trkpt lat="45.55461" lon="6.79508">
        <ele>2243.783</ele>
        <time>2020-12-06T13:50:25Z</time>
      </trkpt>
      <trkpt lat="45.55467" lon="6.79496">
        <ele>2240.991</ele>
        <time>2020-12-06T13:50:30Z</time>
      </trkpt>
      <trkpt lat="45.55472" lon="6.79484">
        <ele>2238.15</ele>
        <time>2020-12-06T13:50:35Z</time>
      </trkpt>
      <trkpt lat="45.55478" lon="6.79471">
        <ele>2235.585</ele>
        <time>2020-12-06T13:50:40Z</time>
      </trkpt>
      <trkpt lat="45.55485" lon="6.79458">
        <ele>2233.615</ele>
        <time>2020-12-06T13:50:45Z</time>
      </trkpt>
      <trkpt lat="45.5549" lon="6.79445">
        <ele>2231.829</ele>
        <time>2020-12-06T13:50:50Z</time>
      </trkpt>
      <trkpt lat="45.55495" lon="6.79433">
        <ele>2229.392</ele>
        <time>2020-12-06T13:50:55Z</time>
      </trkpt>
      <trkpt lat="45.55502" lon="6.79424">
        <ele>2227.279</ele>
        <time>2020-12-06T13:51:00Z</time>
      </trkpt>
      <trkpt lat="45.55508" lon="6.79419">
        <ele>2225.382</ele>
        <time>2020-12-06T13:51:12Z</time>
      </trkpt>
      <trkpt lat="45.55514" lon="6.79419">
        <ele>2221.607</ele>
        <time>2020-12-06T13:51:20Z</time>
      </trkpt>
      <trkpt lat="45.55521" lon="6.79421">
        <ele>2219.001</ele>
        <time>2020-12-06T13:51:28Z</time>
      </trkpt>
      <trkpt lat="45.55527" lon="6.79416">
        <ele>2217.586</ele>
        <time>2020-12-06T13:51:37Z</time>
      </trkpt>
      <trkpt lat="45.55533" lon="6.79413">
        <ele>2215.547</ele>
        <time>2020-12-06T13:51:44Z</time>
      </trkpt>
      <trkpt lat="45.5554" lon="6.79411">
        <ele>2213.304</ele>
        <time>2020-12-06T13:51:51Z</time>
      </trkpt>
      <trkpt lat="45.55547" lon="6.7941">
        <ele>2210.641</ele>
        <time>2020-12-06T13:51:58Z</time>
      </trkpt>
      <trkpt lat="45.55554" lon="6.79411">
        <ele>2206.458</ele>
        <time>2020-12-06T13:52:04Z</time>
      </trkpt>
      <trkpt lat="45.55561" lon="6.7941">
        <ele>2204.07</ele>
        <time>2020-12-06T13:52:10Z</time>
      </trkpt>
      <trkpt lat="45.55569" lon="6.7941">
        <ele>2202.475</ele>
        <time>2020-12-06T13:52:16Z</time>
      </trkpt>
      <trkpt lat="45.55575" lon="6.79409">
        <ele>2201.349</ele>
        <time>2020-12-06T13:52:22Z</time>
      </trkpt>
      <trkpt lat="45.55582" lon="6.79409">
        <ele>2200.345</ele>
        <time>2020-12-06T13:52:28Z</time>
      </trkpt>
      <trkpt lat="45.55589" lon="6.79409">
        <ele>2199.734</ele>
        <time>2020-12-06T13:52:34Z</time>
      </trkpt>
      <trkpt lat="45.55596" lon="6.79406">
        <ele>2199.082</ele>
        <time>2020-12-06T13:52:40Z</time>
      </trkpt>
      <trkpt lat="45.55604" lon="6.79402">
        <ele>2197.498</ele>
        <time>2020-12-06T13:52:46Z</time>
      </trkpt>
      <trkpt lat="45.55611" lon="6.79398">
        <ele>2197.654</ele>
        <time>2020-12-06T13:52:52Z</time>
      </trkpt>
      <trkpt lat="45.55618" lon="6.79393">
        <ele>2197.168</ele>
        <time>2020-12-06T13:52:58Z</time>
      </trkpt>
      <trkpt lat="45.55624" lon="6.79387">
        <ele>2195.088</ele>
        <time>2020-12-06T13:53:05Z</time>
      </trkpt>
      <trkpt lat="45.55629" lon="6.79381">
        <ele>2194.095</ele>
        <time>2020-12-06T13:53:12Z</time>
      </trkpt>
      <trkpt lat="45.55625" lon="6.79389">
        <ele>2194.277</ele>
        <time>2020-12-06T13:53:55Z</time>
      </trkpt>
      <trkpt lat="45.55625" lon="6.794">
        <ele>2194.833</ele>
        <time>2020-12-06T13:54:03Z</time>
      </trkpt>
      <trkpt lat="45.55625" lon="6.7941">
        <ele>2194.591</ele>
        <time>2020-12-06T13:54:11Z</time>
      </trkpt>
      <trkpt lat="45.55625" lon="6.79421">
        <ele>2194.792</ele>
        <time>2020-12-06T13:54:18Z</time>
      </trkpt>
      <trkpt lat="45.5563" lon="6.79428">
        <ele>2193.893</ele>
        <time>2020-12-06T13:54:24Z</time>
      </trkpt>
      <trkpt lat="45.55638" lon="6.7943">
        <ele>2192.983</ele>
        <time>2020-12-06T13:54:30Z</time>
      </trkpt>
      <trkpt lat="45.55645" lon="6.79428">
        <ele>2192.86</ele>
        <time>2020-12-06T13:54:36Z</time>
      </trkpt>
      <trkpt lat="45.55652" lon="6.79425">
        <ele>2192.382</ele>
        <time>2020-12-06T13:54:42Z</time>
      </trkpt>
      <trkpt lat="45.5566" lon="6.79423">
        <ele>2192.764</ele>
        <time>2020-12-06T13:54:48Z</time>
      </trkpt>
      <trkpt lat="45.55667" lon="6.79422">
        <ele>2192.666</ele>
        <time>2020-12-06T13:54:54Z</time>
      </trkpt>
      <trkpt lat="45.55675" lon="6.79422">
        <ele>2191.888</ele>
        <time>2020-12-06T13:55:00Z</time>
      </trkpt>
      <trkpt lat="45.55682" lon="6.79422">
        <ele>2190.661</ele>
        <time>2020-12-06T13:55:06Z</time>
      </trkpt>
      <trkpt lat="45.55689" lon="6.79423">
        <ele>2190.685</ele>
        <time>2020-12-06T13:55:11Z</time>
      </trkpt>
      <trkpt lat="45.55697" lon="6.79423">
        <ele>2190.014</ele>
        <time>2020-12-06T13:55:17Z</time>
      </trkpt>
      <trkpt lat="45.55704" lon="6.79423">
        <ele>2189.509</ele>
        <time>2020-12-06T13:55:23Z</time>
      </trkpt>
      <trkpt lat="45.55711" lon="6.79426">
        <ele>2187.566</ele>
        <time>2020-12-06T13:55:29Z</time>
      </trkpt>
      <trkpt lat="45.55718" lon="6.79429">
        <ele>2186.52</ele>
        <time>2020-12-06T13:55:35Z</time>
      </trkpt>
      <trkpt lat="45.55725" lon="6.79432">
        <ele>2186.213</ele>
        <time>2020-12-06T13:55:41Z</time>
      </trkpt>
      <trkpt lat="45.55732" lon="6.79433">
        <ele>2184.955</ele>
        <time>2020-12-06T13:55:47Z</time>
      </trkpt>
      <trkpt lat="45.55739" lon="6.79431">
        <ele>2182.436</ele>
        <time>2020-12-06T13:56:14Z</time>
      </trkpt>
      <trkpt lat="45.55746" lon="6.79429">
        <ele>2183.82</ele>
        <time>2020-12-06T13:56:32Z</time>
      </trkpt>
      <trkpt lat="45.55753" lon="6.79427">
        <ele>2182.624</ele>
        <time>2020-12-06T13:56:38Z</time>
      </trkpt>
      <trkpt lat="45.5576" lon="6.79422">
        <ele>2181.461</ele>
        <time>2020-12-06T13:56:44Z</time>
      </trkpt>
      <trkpt lat="45.55767" lon="6.79417">
        <ele>2180.905</ele>
        <time>2020-12-06T13:56:50Z</time>
      </trkpt>
      <trkpt lat="45.55773" lon="6.79411">
        <ele>2180.602</ele>
        <time>2020-12-06T13:56:56Z</time>
      </trkpt>
      <trkpt lat="45.55778" lon="6.79405">
        <ele>2179.442</ele>
        <time>2020-12-06T13:57:02Z</time>
      </trkpt>
      <trkpt lat="45.55784" lon="6.794">
        <ele>2179.236</ele>
        <time>2020-12-06T13:57:08Z</time>
      </trkpt>
      <trkpt lat="45.55791" lon="6.79394">
        <ele>2178.674</ele>
        <time>2020-12-06T13:57:14Z</time>
      </trkpt>
      <trkpt lat="45.55796" lon="6.79388">
        <ele>2177.436</ele>
        <time>2020-12-06T13:57:29Z</time>
      </trkpt>
      <trkpt lat="45.55802" lon="6.79382">
        <ele>2177.901</ele>
        <time>2020-12-06T13:57:35Z</time>
      </trkpt>
      <trkpt lat="45.55807" lon="6.79376">
        <ele>2177.43</ele>
        <time>2020-12-06T13:57:41Z</time>
      </trkpt>
      <trkpt lat="45.55812" lon="6.79369">
        <ele>2175.424</ele>
        <time>2020-12-06T13:58:41Z</time>
      </trkpt>
      <trkpt lat="45.55816" lon="6.79362">
        <ele>2175.518</ele>
        <time>2020-12-06T13:58:49Z</time>
      </trkpt>
      <trkpt lat="45.55821" lon="6.79355">
        <ele>2173.493</ele>
        <time>2020-12-06T13:59:19Z</time>
      </trkpt>
      <trkpt lat="45.55826" lon="6.7935">
        <ele>2173.834</ele>
        <time>2020-12-06T13:59:39Z</time>
      </trkpt>
      <trkpt lat="45.55833" lon="6.79345">
        <ele>2171.08</ele>
        <time>2020-12-06T13:59:46Z</time>
      </trkpt>
      <trkpt lat="45.55839" lon="6.7934">
        <ele>2169.583</ele>
        <time>2020-12-06T14:00:11Z</time>
      </trkpt>
      <trkpt lat="45.55845" lon="6.79337">
        <ele>2167.637</ele>
        <time>2020-12-06T14:00:17Z</time>
      </trkpt>
      <trkpt lat="45.55853" lon="6.79335">
        <ele>2165.499</ele>
        <time>2020-12-06T14:00:24Z</time>
      </trkpt>
      <trkpt lat="45.55859" lon="6.79333">
        <ele>2164.903</ele>
        <time>2020-12-06T14:00:29Z</time>
      </trkpt>
      <trkpt lat="45.55866" lon="6.79333">
        <ele>2163.385</ele>
        <time>2020-12-06T14:00:34Z</time>
      </trkpt>
      <trkpt lat="45.55873" lon="6.79334">
        <ele>2162.121</ele>
        <time>2020-12-06T14:00:40Z</time>
      </trkpt>
      <trkpt lat="45.55879" lon="6.79336">
        <ele>2161.451</ele>
        <time>2020-12-06T14:00:46Z</time>
      </trkpt>
      <trkpt lat="45.55886" lon="6.7934">
        <ele>2159.303</ele>
        <time>2020-12-06T14:00:53Z</time>
      </trkpt>
      <trkpt lat="45.55892" lon="6.79345">
        <ele>2157.857</ele>
        <time>2020-12-06T14:00:59Z</time>
      </trkpt>
      <trkpt lat="45.55899" lon="6.79347">
        <ele>2156.768</ele>
        <time>2020-12-06T14:01:05Z</time>
      </trkpt>
      <trkpt lat="45.55905" lon="6.79351">
        <ele>2155.521</ele>
        <time>2020-12-06T14:01:11Z</time>
      </trkpt>
      <trkpt lat="45.5591" lon="6.79357">
        <ele>2153.973</ele>
        <time>2020-12-06T14:01:17Z</time>
      </trkpt>
      <trkpt lat="45.55916" lon="6.79365">
        <ele>2151.755</ele>
        <time>2020-12-06T14:01:24Z</time>
      </trkpt>
      <trkpt lat="45.55921" lon="6.79372">
        <ele>2149.921</ele>
        <time>2020-12-06T14:01:30Z</time>
      </trkpt>
      <trkpt lat="45.55926" lon="6.79379">
        <ele>2147.707</ele>
        <time>2020-12-06T14:01:37Z</time>
      </trkpt>
      <trkpt lat="45.55933" lon="6.79384">
        <ele>2146.815</ele>
        <time>2020-12-06T14:01:43Z</time>
      </trkpt>
      <trkpt lat="45.55938" lon="6.7939">
        <ele>2144.558</ele>
        <time>2020-12-06T14:01:49Z</time>
      </trkpt>
      <trkpt lat="45.55943" lon="6.79395">
        <ele>2144.172</ele>
        <time>2020-12-06T14:01:54Z</time>
      </trkpt>
      <trkpt lat="45.55949" lon="6.79401">
        <ele>2142.721</ele>
        <time>2020-12-06T14:02:00Z</time>
      </trkpt>
      <trkpt lat="45.55956" lon="6.79406">
        <ele>2140.583</ele>
        <time>2020-12-06T14:02:06Z</time>
      </trkpt>
      <trkpt lat="45.55962" lon="6.7941">
        <ele>2138.273</ele>
        <time>2020-12-06T14:02:13Z</time>
      </trkpt>
      <trkpt lat="45.55969" lon="6.79414">
        <ele>2135.895</ele>
        <time>2020-12-06T14:02:19Z</time>
      </trkpt>
      <trkpt lat="45.55976" lon="6.79418">
        <ele>2135.527</ele>
        <time>2020-12-06T14:02:25Z</time>
      </trkpt>
      <trkpt lat="45.55982" lon="6.79422">
        <ele>2134.133</ele>
        <time>2020-12-06T14:02:32Z</time>
      </trkpt>
      <trkpt lat="45.55989" lon="6.79424">
        <ele>2134.763</ele>
        <time>2020-12-06T14:02:48Z</time>
      </trkpt>
      <trkpt lat="45.55995" lon="6.79427">
        <ele>2130.36</ele>
        <time>2020-12-06T14:03:13Z</time>
      </trkpt>
      <trkpt lat="45.56003" lon="6.79429">
        <ele>2131.26</ele>
        <time>2020-12-06T14:03:20Z</time>
      </trkpt>
      <trkpt lat="45.5601" lon="6.7943">
        <ele>2132.706</ele>
        <time>2020-12-06T14:03:27Z</time>
      </trkpt>
      <trkpt lat="45.56017" lon="6.79427">
        <ele>2132.926</ele>
        <time>2020-12-06T14:03:34Z</time>
      </trkpt>
      <trkpt lat="45.56024" lon="6.79426">
        <ele>2132.742</ele>
        <time>2020-12-06T14:03:40Z</time>
      </trkpt>
      <trkpt lat="45.56031" lon="6.79425">
        <ele>2132.198</ele>
        <time>2020-12-06T14:03:46Z</time>
      </trkpt>
      <trkpt lat="45.56038" lon="6.79425">
        <ele>2131.736</ele>
        <time>2020-12-06T14:03:52Z</time>
      </trkpt>
      <trkpt lat="45.56045" lon="6.79426">
        <ele>2132.118</ele>
        <time>2020-12-06T14:03:58Z</time>
      </trkpt>
      <trkpt lat="45.56052" lon="6.79428">
        <ele>2130.976</ele>
        <time>2020-12-06T14:04:05Z</time>
      </trkpt>
      <trkpt lat="45.56059" lon="6.79431">
        <ele>2130.692</ele>
        <time>2020-12-06T14:04:12Z</time>
      </trkpt>
      <trkpt lat="45.56065" lon="6.79435">
        <ele>2130.171</ele>
        <time>2020-12-06T14:04:18Z</time>
      </trkpt>
      <trkpt lat="45.56072" lon="6.7944">
        <ele>2129.772</ele>
        <time>2020-12-06T14:04:24Z</time>
      </trkpt>
      <trkpt lat="45.56077" lon="6.79446">
        <ele>2129.191</ele>
        <time>2020-12-06T14:04:30Z</time>
      </trkpt>
      <trkpt lat="45.56082" lon="6.79452">
        <ele>2128.2</ele>
        <time>2020-12-06T14:04:36Z</time>
      </trkpt>
      <trkpt lat="45.56088" lon="6.79458">
        <ele>2127.509</ele>
        <time>2020-12-06T14:04:42Z</time>
      </trkpt>
      <trkpt lat="45.56093" lon="6.79465">
        <ele>2124.76</ele>
        <time>2020-12-06T14:04:48Z</time>
      </trkpt>
      <trkpt lat="45.561" lon="6.7947">
        <ele>2125.841</ele>
        <time>2020-12-06T14:04:53Z</time>
      </trkpt>
      <trkpt lat="45.56106" lon="6.79475">
        <ele>2124.87</ele>
        <time>2020-12-06T14:04:59Z</time>
      </trkpt>
      <trkpt lat="45.56113" lon="6.79479">
        <ele>2124.425</ele>
        <time>2020-12-06T14:05:05Z</time>
      </trkpt>
      <trkpt lat="45.56119" lon="6.7948">
        <ele>2124.547</ele>
        <time>2020-12-06T14:05:10Z</time>
      </trkpt>
      <trkpt lat="45.56127" lon="6.79481">
        <ele>2122.445</ele>
        <time>2020-12-06T14:05:17Z</time>
      </trkpt>
      <trkpt lat="45.56134" lon="6.79479">
        <ele>2121.139</ele>
        <time>2020-12-06T14:05:23Z</time>
      </trkpt>
      <trkpt lat="45.56141" lon="6.79479">
        <ele>2119.969</ele>
        <time>2020-12-06T14:05:29Z</time>
      </trkpt>
      <trkpt lat="45.56148" lon="6.79482">
        <ele>2120.532</ele>
        <time>2020-12-06T14:05:36Z</time>
      </trkpt>
      <trkpt lat="45.56152" lon="6.79489">
        <ele>2122.318</ele>
        <time>2020-12-06T14:05:44Z</time>
      </trkpt>
      <trkpt lat="45.56157" lon="6.79496">
        <ele>2123.193</ele>
        <time>2020-12-06T14:05:52Z</time>
      </trkpt>
      <trkpt lat="45.56163" lon="6.79501">
        <ele>2123.974</ele>
        <time>2020-12-06T14:06:00Z</time>
      </trkpt>
      <trkpt lat="45.5617" lon="6.79506">
        <ele>2127.732</ele>
        <time>2020-12-06T14:06:13Z</time>
      </trkpt>
      <trkpt lat="45.56176" lon="6.79507">
        <ele>2128.014</ele>
        <time>2020-12-06T14:06:19Z</time>
      </trkpt>
      <trkpt lat="45.56183" lon="6.79507">
        <ele>2125.678</ele>
        <time>2020-12-06T14:06:26Z</time>
      </trkpt>
      <trkpt lat="45.5619" lon="6.79504">
        <ele>2124.79</ele>
        <time>2020-12-06T14:06:32Z</time>
      </trkpt>
      <trkpt lat="45.56197" lon="6.79501">
        <ele>2122.497</ele>
        <time>2020-12-06T14:06:38Z</time>
      </trkpt>
      <trkpt lat="45.56203" lon="6.79494">
        <ele>2119.774</ele>
        <time>2020-12-06T14:06:44Z</time>
      </trkpt>
      <trkpt lat="45.56204" lon="6.79484">
        <ele>2116.426</ele>
        <time>2020-12-06T14:06:49Z</time>
      </trkpt>
      <trkpt lat="45.5621" lon="6.79477">
        <ele>2113.016</ele>
        <time>2020-12-06T14:06:55Z</time>
      </trkpt>
      <trkpt lat="45.56215" lon="6.79468">
        <ele>2111.166</ele>
        <time>2020-12-06T14:07:00Z</time>
      </trkpt>
      <trkpt lat="45.56221" lon="6.79462">
        <ele>2110.46</ele>
        <time>2020-12-06T14:07:05Z</time>
      </trkpt>
      <trkpt lat="45.56226" lon="6.79455">
        <ele>2108.13</ele>
        <time>2020-12-06T14:07:10Z</time>
      </trkpt>
      <trkpt lat="45.56225" lon="6.79445">
        <ele>2105.284</ele>
        <time>2020-12-06T14:07:16Z</time>
      </trkpt>
      <trkpt lat="45.5623" lon="6.79439">
        <ele>2102.85</ele>
        <time>2020-12-06T14:07:22Z</time>
      </trkpt>
      <trkpt lat="45.56237" lon="6.79437">
        <ele>2102.465</ele>
        <time>2020-12-06T14:07:28Z</time>
      </trkpt>
      <trkpt lat="45.56244" lon="6.79436">
        <ele>2101.522</ele>
        <time>2020-12-06T14:07:34Z</time>
      </trkpt>
      <trkpt lat="45.5625" lon="6.79435">
        <ele>2102.486</ele>
        <time>2020-12-06T14:07:39Z</time>
      </trkpt>
      <trkpt lat="45.56256" lon="6.7943">
        <ele>2102.278</ele>
        <time>2020-12-06T14:07:45Z</time>
      </trkpt>
      <trkpt lat="45.56261" lon="6.79422">
        <ele>2101.88</ele>
        <time>2020-12-06T14:07:52Z</time>
      </trkpt>
      <trkpt lat="45.56268" lon="6.79416">
        <ele>2101.801</ele>
        <time>2020-12-06T14:07:58Z</time>
      </trkpt>
      <trkpt lat="45.56274" lon="6.79411">
        <ele>2101.573</ele>
        <time>2020-12-06T14:08:04Z</time>
      </trkpt>
      <trkpt lat="45.56281" lon="6.79409">
        <ele>2100.54</ele>
        <time>2020-12-06T14:08:10Z</time>
      </trkpt>
      <trkpt lat="45.56287" lon="6.79406">
        <ele>2099.943</ele>
        <time>2020-12-06T14:08:15Z</time>
      </trkpt>
      <trkpt lat="45.56294" lon="6.79405">
        <ele>2098.929</ele>
        <time>2020-12-06T14:08:21Z</time>
      </trkpt>
      <trkpt lat="45.56301" lon="6.79403">
        <ele>2096.716</ele>
        <time>2020-12-06T14:08:29Z</time>
      </trkpt>
      <trkpt lat="45.56309" lon="6.79404">
        <ele>2095.183</ele>
        <time>2020-12-06T14:08:37Z</time>
      </trkpt>
      <trkpt lat="45.56315" lon="6.79402">
        <ele>2093.537</ele>
        <time>2020-12-06T14:08:45Z</time>
      </trkpt>
      <trkpt lat="45.56323" lon="6.794">
        <ele>2093.812</ele>
        <time>2020-12-06T14:08:52Z</time>
      </trkpt>
      <trkpt lat="45.5633" lon="6.79399">
        <ele>2092.764</ele>
        <time>2020-12-06T14:08:58Z</time>
      </trkpt>
      <trkpt lat="45.56337" lon="6.79399">
        <ele>2092.049</ele>
        <time>2020-12-06T14:09:05Z</time>
      </trkpt>
      <trkpt lat="45.56343" lon="6.79396">
        <ele>2091.515</ele>
        <time>2020-12-06T14:09:11Z</time>
      </trkpt>
      <trkpt lat="45.5635" lon="6.79392">
        <ele>2090.532</ele>
        <time>2020-12-06T14:09:17Z</time>
      </trkpt>
      <trkpt lat="45.56357" lon="6.79388">
        <ele>2090.165</ele>
        <time>2020-12-06T14:09:23Z</time>
      </trkpt>
      <trkpt lat="45.56363" lon="6.79382">
        <ele>2090.716</ele>
        <time>2020-12-06T14:09:31Z</time>
      </trkpt>
      <trkpt lat="45.56369" lon="6.79378">
        <ele>2090.458</ele>
        <time>2020-12-06T14:09:37Z</time>
      </trkpt>
      <trkpt lat="45.56376" lon="6.79377">
        <ele>2089.739</ele>
        <time>2020-12-06T14:09:44Z</time>
      </trkpt>
      <trkpt lat="45.56383" lon="6.79375">
        <ele>2088.622</ele>
        <time>2020-12-06T14:09:51Z</time>
      </trkpt>
      <trkpt lat="45.5639" lon="6.79375">
        <ele>2087.705</ele>
        <time>2020-12-06T14:09:57Z</time>
      </trkpt>
      <trkpt lat="45.56396" lon="6.79373">
        <ele>2086.511</ele>
        <time>2020-12-06T14:10:04Z</time>
      </trkpt>
      <trkpt lat="45.56403" lon="6.79374">
        <ele>2086.033</ele>
        <time>2020-12-06T14:10:10Z</time>
      </trkpt>
      <trkpt lat="45.5641" lon="6.79376">
        <ele>2085.512</ele>
        <time>2020-12-06T14:10:16Z</time>
      </trkpt>
      <trkpt lat="45.56416" lon="6.79376">
        <ele>2084.221</ele>
        <time>2020-12-06T14:10:22Z</time>
      </trkpt>
      <trkpt lat="45.56424" lon="6.79376">
        <ele>2082.401</ele>
        <time>2020-12-06T14:10:29Z</time>
      </trkpt>
      <trkpt lat="45.56431" lon="6.79377">
        <ele>2081.266</ele>
        <time>2020-12-06T14:10:36Z</time>
      </trkpt>
      <trkpt lat="45.56438" lon="6.79378">
        <ele>2079.902</ele>
        <time>2020-12-06T14:10:42Z</time>
      </trkpt>
      <trkpt lat="45.56444" lon="6.7938">
        <ele>2077.376</ele>
        <time>2020-12-06T14:10:49Z</time>
      </trkpt>
      <trkpt lat="45.56451" lon="6.79382">
        <ele>2076.003</ele>
        <time>2020-12-06T14:10:55Z</time>
      </trkpt>
      <trkpt lat="45.56458" lon="6.79385">
        <ele>2073.352</ele>
        <time>2020-12-06T14:11:02Z</time>
      </trkpt>
      <trkpt lat="45.56464" lon="6.79388">
        <ele>2071.64</ele>
        <time>2020-12-06T14:11:08Z</time>
      </trkpt>
      <trkpt lat="45.56471" lon="6.79391">
        <ele>2069.625</ele>
        <time>2020-12-06T14:11:14Z</time>
      </trkpt>
      <trkpt lat="45.56478" lon="6.79394">
        <ele>2068.872</ele>
        <time>2020-12-06T14:11:20Z</time>
      </trkpt>
      <trkpt lat="45.56484" lon="6.79396">
        <ele>2066.875</ele>
        <time>2020-12-06T14:11:28Z</time>
      </trkpt>
      <trkpt lat="45.56492" lon="6.79396">
        <ele>2064.848</ele>
        <time>2020-12-06T14:11:38Z</time>
      </trkpt>
      <trkpt lat="45.56498" lon="6.79396">
        <ele>2064.038</ele>
        <time>2020-12-06T14:11:45Z</time>
      </trkpt>
      <trkpt lat="45.56505" lon="6.79396">
        <ele>2063.551</ele>
        <time>2020-12-06T14:11:52Z</time>
      </trkpt>
      <trkpt lat="45.56512" lon="6.79397">
        <ele>2062.494</ele>
        <time>2020-12-06T14:11:59Z</time>
      </trkpt>
      <trkpt lat="45.5652" lon="6.79398">
        <ele>2061.399</ele>
        <time>2020-12-06T14:12:16Z</time>
      </trkpt>
      <trkpt lat="45.56527" lon="6.794">
        <ele>2059.762</ele>
        <time>2020-12-06T14:12:25Z</time>
      </trkpt>
      <trkpt lat="45.56532" lon="6.79405">
        <ele>2059.708</ele>
        <time>2020-12-06T14:12:33Z</time>
      </trkpt>
      <trkpt lat="45.56539" lon="6.79407">
        <ele>2059.747</ele>
        <time>2020-12-06T14:12:40Z</time>
      </trkpt>
      <trkpt lat="45.56546" lon="6.79408">
        <ele>2059.355</ele>
        <time>2020-12-06T14:12:48Z</time>
      </trkpt>
      <trkpt lat="45.56552" lon="6.79411">
        <ele>2057.787</ele>
        <time>2020-12-06T14:12:57Z</time>
      </trkpt>
      <trkpt lat="45.56559" lon="6.7941">
        <ele>2057.679</ele>
        <time>2020-12-06T14:13:04Z</time>
      </trkpt>
      <trkpt lat="45.56565" lon="6.79408">
        <ele>2056.765</ele>
        <time>2020-12-06T14:13:11Z</time>
      </trkpt>
      <trkpt lat="45.56572" lon="6.79409">
        <ele>2055.779</ele>
        <time>2020-12-06T14:13:19Z</time>
      </trkpt>
      <trkpt lat="45.56579" lon="6.79409">
        <ele>2054.9</ele>
        <time>2020-12-06T14:13:28Z</time>
      </trkpt>
      <trkpt lat="45.56586" lon="6.79406">
        <ele>2053.596</ele>
        <time>2020-12-06T14:13:36Z</time>
      </trkpt>
      <trkpt lat="45.56592" lon="6.79402">
        <ele>2052.637</ele>
        <time>2020-12-06T14:13:44Z</time>
      </trkpt>
      <trkpt lat="45.56599" lon="6.79398">
        <ele>2051.752</ele>
        <time>2020-12-06T14:13:52Z</time>
      </trkpt>
      <trkpt lat="45.56605" lon="6.79394">
        <ele>2050.026</ele>
        <time>2020-12-06T14:14:00Z</time>
      </trkpt>
      <trkpt lat="45.56612" lon="6.79393">
        <ele>2049.548</ele>
        <time>2020-12-06T14:14:21Z</time>
      </trkpt>
      <trkpt lat="45.56617" lon="6.79387">
        <ele>2048.512</ele>
        <time>2020-12-06T14:14:34Z</time>
      </trkpt>
      <trkpt lat="45.56617" lon="6.79376">
        <ele>2045.971</ele>
        <time>2020-12-06T14:14:40Z</time>
      </trkpt>
      <trkpt lat="45.56623" lon="6.7937">
        <ele>2045.901</ele>
        <time>2020-12-06T14:14:49Z</time>
      </trkpt>
      <trkpt lat="45.5663" lon="6.79366">
        <ele>2044.519</ele>
        <time>2020-12-06T14:14:56Z</time>
      </trkpt>
      <trkpt lat="45.56636" lon="6.79361">
        <ele>2044.742</ele>
        <time>2020-12-06T14:15:02Z</time>
      </trkpt>
      <trkpt lat="45.56642" lon="6.79357">
        <ele>2044.411</ele>
        <time>2020-12-06T14:15:08Z</time>
      </trkpt>
      <trkpt lat="45.56648" lon="6.79351">
        <ele>2043.416</ele>
        <time>2020-12-06T14:15:15Z</time>
      </trkpt>
      <trkpt lat="45.56654" lon="6.79347">
        <ele>2042.909</ele>
        <time>2020-12-06T14:15:21Z</time>
      </trkpt>
      <trkpt lat="45.56661" lon="6.79344">
        <ele>2041.757</ele>
        <time>2020-12-06T14:15:28Z</time>
      </trkpt>
      <trkpt lat="45.56668" lon="6.7934">
        <ele>2041.224</ele>
        <time>2020-12-06T14:15:35Z</time>
      </trkpt>
      <trkpt lat="45.56675" lon="6.79338">
        <ele>2039.607</ele>
        <time>2020-12-06T14:15:42Z</time>
      </trkpt>
      <trkpt lat="45.56682" lon="6.79338">
        <ele>2039.194</ele>
        <time>2020-12-06T14:15:48Z</time>
      </trkpt>
      <trkpt lat="45.56688" lon="6.79336">
        <ele>2037.775</ele>
        <time>2020-12-06T14:15:55Z</time>
      </trkpt>
      <trkpt lat="45.56695" lon="6.79335">
        <ele>2036.15</ele>
        <time>2020-12-06T14:16:13Z</time>
      </trkpt>
      <trkpt lat="45.56702" lon="6.79335">
        <ele>2034.823</ele>
        <time>2020-12-06T14:16:20Z</time>
      </trkpt>
      <trkpt lat="45.56709" lon="6.79335">
        <ele>2032.812</ele>
        <time>2020-12-06T14:16:27Z</time>
      </trkpt>
      <trkpt lat="45.56716" lon="6.79333">
        <ele>2033.706</ele>
        <time>2020-12-06T14:16:34Z</time>
      </trkpt>
      <trkpt lat="45.56722" lon="6.79332">
        <ele>2033.782</ele>
        <time>2020-12-06T14:16:40Z</time>
      </trkpt>
      <trkpt lat="45.5673" lon="6.79331">
        <ele>2032.041</ele>
        <time>2020-12-06T14:16:47Z</time>
      </trkpt>
      <trkpt lat="45.56737" lon="6.79329">
        <ele>2031.749</ele>
        <time>2020-12-06T14:16:54Z</time>
      </trkpt>
      <trkpt lat="45.56744" lon="6.79328">
        <ele>2031.03</ele>
        <time>2020-12-06T14:17:00Z</time>
      </trkpt>
      <trkpt lat="45.5675" lon="6.79327">
        <ele>2030.065</ele>
        <time>2020-12-06T14:17:06Z</time>
      </trkpt>
      <trkpt lat="45.56757" lon="6.79328">
        <ele>2029.706</ele>
        <time>2020-12-06T14:17:12Z</time>
      </trkpt>
      <trkpt lat="45.56763" lon="6.79326">
        <ele>2029.286</ele>
        <time>2020-12-06T14:17:18Z</time>
      </trkpt>
      <trkpt lat="45.56771" lon="6.79324">
        <ele>2027.609</ele>
        <time>2020-12-06T14:17:25Z</time>
      </trkpt>
      <trkpt lat="45.56777" lon="6.7932">
        <ele>2026.735</ele>
        <time>2020-12-06T14:17:31Z</time>
      </trkpt>
      <trkpt lat="45.56783" lon="6.79316">
        <ele>2025.495</ele>
        <time>2020-12-06T14:17:38Z</time>
      </trkpt>
      <trkpt lat="45.56789" lon="6.79312">
        <ele>2025.873</ele>
        <time>2020-12-06T14:17:44Z</time>
      </trkpt>
      <trkpt lat="45.56795" lon="6.79309">
        <ele>2026.326</ele>
        <time>2020-12-06T14:17:50Z</time>
      </trkpt>
      <trkpt lat="45.56801" lon="6.79303">
        <ele>2024.22</ele>
        <time>2020-12-06T14:18:27Z</time>
      </trkpt>
      <trkpt lat="45.56809" lon="6.79304">
        <ele>2023.644</ele>
        <time>2020-12-06T14:18:35Z</time>
      </trkpt>
      <trkpt lat="45.56815" lon="6.79304">
        <ele>2022.847</ele>
        <time>2020-12-06T14:18:42Z</time>
      </trkpt>
      <trkpt lat="45.56822" lon="6.79304">
        <ele>2022.753</ele>
        <time>2020-12-06T14:18:48Z</time>
      </trkpt>
      <trkpt lat="45.56828" lon="6.79303">
        <ele>2021.311</ele>
        <time>2020-12-06T14:18:54Z</time>
      </trkpt>
      <trkpt lat="45.56836" lon="6.79302">
        <ele>2020.648</ele>
        <time>2020-12-06T14:19:01Z</time>
      </trkpt>
      <trkpt lat="45.56842" lon="6.79302">
        <ele>2019.533</ele>
        <time>2020-12-06T14:19:07Z</time>
      </trkpt>
      <trkpt lat="45.5685" lon="6.79303">
        <ele>2018.381</ele>
        <time>2020-12-06T14:19:14Z</time>
      </trkpt>
      <trkpt lat="45.56857" lon="6.79304">
        <ele>2016.997</ele>
        <time>2020-12-06T14:19:21Z</time>
      </trkpt>
      <trkpt lat="45.56864" lon="6.79306">
        <ele>2015.471</ele>
        <time>2020-12-06T14:19:28Z</time>
      </trkpt>
      <trkpt lat="45.56871" lon="6.79308">
        <ele>2013.858</ele>
        <time>2020-12-06T14:19:35Z</time>
      </trkpt>
      <trkpt lat="45.56878" lon="6.7931">
        <ele>2011.846</ele>
        <time>2020-12-06T14:19:42Z</time>
      </trkpt>
      <trkpt lat="45.56885" lon="6.79311">
        <ele>2011.207</ele>
        <time>2020-12-06T14:19:49Z</time>
      </trkpt>
      <trkpt lat="45.56892" lon="6.79313">
        <ele>2010.021</ele>
        <time>2020-12-06T14:19:55Z</time>
      </trkpt>
      <trkpt lat="45.56898" lon="6.79317">
        <ele>2007.868</ele>
        <time>2020-12-06T14:20:03Z</time>
      </trkpt>
      <trkpt lat="45.56905" lon="6.7932">
        <ele>2006.052</ele>
        <time>2020-12-06T14:20:10Z</time>
      </trkpt>
      <trkpt lat="45.56911" lon="6.79322">
        <ele>2006.101</ele>
        <time>2020-12-06T14:20:18Z</time>
      </trkpt>
      <trkpt lat="45.56918" lon="6.79321">
        <ele>2004.772</ele>
        <time>2020-12-06T14:20:27Z</time>
      </trkpt>
      <trkpt lat="45.56924" lon="6.79319">
        <ele>2004.076</ele>
        <time>2020-12-06T14:20:35Z</time>
      </trkpt>
      <trkpt lat="45.56931" lon="6.79316">
        <ele>2002.931</ele>
        <time>2020-12-06T14:20:42Z</time>
      </trkpt>
      <trkpt lat="45.56937" lon="6.79313">
        <ele>2002.393</ele>
        <time>2020-12-06T14:20:56Z</time>
      </trkpt>
      <trkpt lat="45.56944" lon="6.79309">
        <ele>2002.314</ele>
        <time>2020-12-06T14:21:33Z</time>
      </trkpt>
      <trkpt lat="45.5695" lon="6.79305">
        <ele>2001.551</ele>
        <time>2020-12-06T14:21:39Z</time>
      </trkpt>
      <trkpt lat="45.56957" lon="6.79304">
        <ele>2000.189</ele>
        <time>2020-12-06T14:21:45Z</time>
      </trkpt>
      <trkpt lat="45.56964" lon="6.79302">
        <ele>1998.618</ele>
        <time>2020-12-06T14:21:52Z</time>
      </trkpt>
      <trkpt lat="45.56971" lon="6.793">
        <ele>1997.616</ele>
        <time>2020-12-06T14:21:59Z</time>
      </trkpt>
      <trkpt lat="45.56978" lon="6.79301">
        <ele>1997.16</ele>
        <time>2020-12-06T14:22:05Z</time>
      </trkpt>
      <trkpt lat="45.56985" lon="6.79302">
        <ele>1995.838</ele>
        <time>2020-12-06T14:22:12Z</time>
      </trkpt>
      <trkpt lat="45.56991" lon="6.79304">
        <ele>1994.505</ele>
        <time>2020-12-06T14:22:18Z</time>
      </trkpt>
      <trkpt lat="45.56999" lon="6.79302">
        <ele>1993.197</ele>
        <time>2020-12-06T14:22:25Z</time>
      </trkpt>
      <trkpt lat="45.57005" lon="6.79302">
        <ele>1991.805</ele>
        <time>2020-12-06T14:22:32Z</time>
      </trkpt>
      <trkpt lat="45.57012" lon="6.79304">
        <ele>1989.907</ele>
        <time>2020-12-06T14:22:40Z</time>
      </trkpt>
      <trkpt lat="45.57019" lon="6.79305">
        <ele>1987.548</ele>
        <time>2020-12-06T14:22:48Z</time>
      </trkpt>
      <trkpt lat="45.57026" lon="6.79304">
        <ele>1984.835</ele>
        <time>2020-12-06T14:22:56Z</time>
      </trkpt>
      <trkpt lat="45.57032" lon="6.79305">
        <ele>1982.07</ele>
        <time>2020-12-06T14:23:04Z</time>
      </trkpt>
      <trkpt lat="45.57039" lon="6.79304">
        <ele>1979.201</ele>
        <time>2020-12-06T14:23:12Z</time>
      </trkpt>
      <trkpt lat="45.57046" lon="6.79304">
        <ele>1977.139</ele>
        <time>2020-12-06T14:23:20Z</time>
      </trkpt>
      <trkpt lat="45.57052" lon="6.79308">
        <ele>1975.319</ele>
        <time>2020-12-06T14:23:27Z</time>
      </trkpt>
      <trkpt lat="45.57059" lon="6.79313">
        <ele>1974.441</ele>
        <time>2020-12-06T14:23:34Z</time>
      </trkpt>
      <trkpt lat="45.57064" lon="6.79319">
        <ele>1973.528</ele>
        <time>2020-12-06T14:23:40Z</time>
      </trkpt>
      <trkpt lat="45.5707" lon="6.79326">
        <ele>1972.663</ele>
        <time>2020-12-06T14:23:46Z</time>
      </trkpt>
      <trkpt lat="45.57076" lon="6.79331">
        <ele>1972.902</ele>
        <time>2020-12-06T14:23:56Z</time>
      </trkpt>
      <trkpt lat="45.57082" lon="6.79328">
        <ele>1973.731</ele>
        <time>2020-12-06T14:24:18Z</time>
      </trkpt>
      <trkpt lat="45.57089" lon="6.79326">
        <ele>1970.109</ele>
        <time>2020-12-06T14:24:27Z</time>
      </trkpt>
      <trkpt lat="45.57095" lon="6.79327">
        <ele>1967.977</ele>
        <time>2020-12-06T14:24:35Z</time>
      </trkpt>
      <trkpt lat="45.57102" lon="6.79325">
        <ele>1966.607</ele>
        <time>2020-12-06T14:24:42Z</time>
      </trkpt>
      <trkpt lat="45.57109" lon="6.79323">
        <ele>1963.293</ele>
        <time>2020-12-06T14:24:50Z</time>
      </trkpt>
      <trkpt lat="45.57116" lon="6.7932">
        <ele>1962.572</ele>
        <time>2020-12-06T14:24:56Z</time>
      </trkpt>
      <trkpt lat="45.57122" lon="6.79316">
        <ele>1961.435</ele>
        <time>2020-12-06T14:25:02Z</time>
      </trkpt>
      <trkpt lat="45.57129" lon="6.79313">
        <ele>1960.371</ele>
        <time>2020-12-06T14:25:08Z</time>
      </trkpt>
      <trkpt lat="45.57135" lon="6.79311">
        <ele>1959.864</ele>
        <time>2020-12-06T14:25:14Z</time>
      </trkpt>
      <trkpt lat="45.57142" lon="6.79308">
        <ele>1958.647</ele>
        <time>2020-12-06T14:25:21Z</time>
      </trkpt>
      <trkpt lat="45.5715" lon="6.79307">
        <ele>1957.202</ele>
        <time>2020-12-06T14:25:28Z</time>
      </trkpt>
      <trkpt lat="45.57157" lon="6.79305">
        <ele>1956.914</ele>
        <time>2020-12-06T14:25:34Z</time>
      </trkpt>
      <trkpt lat="45.57163" lon="6.79305">
        <ele>1955.751</ele>
        <time>2020-12-06T14:25:41Z</time>
      </trkpt>
      <trkpt lat="45.57171" lon="6.79304">
        <ele>1954.836</ele>
        <time>2020-12-06T14:25:48Z</time>
      </trkpt>
      <trkpt lat="45.57178" lon="6.79305">
        <ele>1954.199</ele>
        <time>2020-12-06T14:25:54Z</time>
      </trkpt>
      <trkpt lat="45.57185" lon="6.79306">
        <ele>1953.137</ele>
        <time>2020-12-06T14:26:00Z</time>
      </trkpt>
      <trkpt lat="45.57192" lon="6.79307">
        <ele>1952.03</ele>
        <time>2020-12-06T14:26:07Z</time>
      </trkpt>
      <trkpt lat="45.572" lon="6.79309">
        <ele>1951.144</ele>
        <time>2020-12-06T14:26:13Z</time>
      </trkpt>
      <trkpt lat="45.57207" lon="6.79308">
        <ele>1949.821</ele>
        <time>2020-12-06T14:26:19Z</time>
      </trkpt>
      <trkpt lat="45.57214" lon="6.79305">
        <ele>1949.047</ele>
        <time>2020-12-06T14:26:26Z</time>
      </trkpt>
      <trkpt lat="45.57221" lon="6.79307">
        <ele>1948.22</ele>
        <time>2020-12-06T14:26:33Z</time>
      </trkpt>
      <trkpt lat="45.57227" lon="6.7931">
        <ele>1947.332</ele>
        <time>2020-12-06T14:26:39Z</time>
      </trkpt>
      <trkpt lat="45.57234" lon="6.79313">
        <ele>1947.855</ele>
        <time>2020-12-06T14:26:50Z</time>
      </trkpt>
      <trkpt lat="45.5724" lon="6.79314">
        <ele>1950.552</ele>
        <time>2020-12-06T14:27:25Z</time>
      </trkpt>
      <trkpt lat="45.57251" lon="6.79318">
        <ele>1947.364</ele>
        <time>2020-12-06T14:27:30Z</time>
      </trkpt>
      <trkpt lat="45.5726" lon="6.79318">
        <ele>1945.571</ele>
        <time>2020-12-06T14:27:35Z</time>
      </trkpt>
      <trkpt lat="45.57267" lon="6.79318">
        <ele>1944.577</ele>
        <time>2020-12-06T14:27:41Z</time>
      </trkpt>
      <trkpt lat="45.57274" lon="6.79316">
        <ele>1943.38</ele>
        <time>2020-12-06T14:27:48Z</time>
      </trkpt>
      <trkpt lat="45.57277" lon="6.79308">
        <ele>1942.481</ele>
        <time>2020-12-06T14:27:55Z</time>
      </trkpt>
      <trkpt lat="45.57274" lon="6.79299">
        <ele>1942.047</ele>
        <time>2020-12-06T14:28:03Z</time>
      </trkpt>
      <trkpt lat="45.57278" lon="6.7929">
        <ele>1940.419</ele>
        <time>2020-12-06T14:28:11Z</time>
      </trkpt>
      <trkpt lat="45.57275" lon="6.79281">
        <ele>1939.311</ele>
        <time>2020-12-06T14:28:18Z</time>
      </trkpt>
      <trkpt lat="45.57273" lon="6.79272">
        <ele>1937.098</ele>
        <time>2020-12-06T14:28:24Z</time>
      </trkpt>
      <trkpt lat="45.57271" lon="6.79262">
        <ele>1935.375</ele>
        <time>2020-12-06T14:28:30Z</time>
      </trkpt>
      <trkpt lat="45.57268" lon="6.79251">
        <ele>1933.756</ele>
        <time>2020-12-06T14:28:36Z</time>
      </trkpt>
      <trkpt lat="45.57266" lon="6.79242">
        <ele>1932.117</ele>
        <time>2020-12-06T14:28:42Z</time>
      </trkpt>
      <trkpt lat="45.57263" lon="6.79233">
        <ele>1930.339</ele>
        <time>2020-12-06T14:28:48Z</time>
      </trkpt>
      <trkpt lat="45.57262" lon="6.79223">
        <ele>1928.833</ele>
        <time>2020-12-06T14:28:55Z</time>
      </trkpt>
      <trkpt lat="45.57261" lon="6.79213">
        <ele>1925.86</ele>
        <time>2020-12-06T14:29:03Z</time>
      </trkpt>
      <trkpt lat="45.5726" lon="6.79203">
        <ele>1922.895</ele>
        <time>2020-12-06T14:29:11Z</time>
      </trkpt>
      <trkpt lat="45.57259" lon="6.79193">
        <ele>1921.693</ele>
        <time>2020-12-06T14:29:17Z</time>
      </trkpt>
      <trkpt lat="45.57259" lon="6.79183">
        <ele>1919.78</ele>
        <time>2020-12-06T14:29:23Z</time>
      </trkpt>
      <trkpt lat="45.57261" lon="6.79174">
        <ele>1919.772</ele>
        <time>2020-12-06T14:29:29Z</time>
      </trkpt>
      <trkpt lat="45.57263" lon="6.79165">
        <ele>1917.02</ele>
        <time>2020-12-06T14:29:36Z</time>
      </trkpt>
      <trkpt lat="45.57268" lon="6.79158">
        <ele>1914.887</ele>
        <time>2020-12-06T14:29:43Z</time>
      </trkpt>
      <trkpt lat="45.57273" lon="6.7915">
        <ele>1913.909</ele>
        <time>2020-12-06T14:29:50Z</time>
      </trkpt>
      <trkpt lat="45.57279" lon="6.79147">
        <ele>1911.599</ele>
        <time>2020-12-06T14:29:58Z</time>
      </trkpt>
      <trkpt lat="45.57283" lon="6.79138">
        <ele>1908.159</ele>
        <time>2020-12-06T14:30:07Z</time>
      </trkpt>
      <trkpt lat="45.57286" lon="6.79129">
        <ele>1905.746</ele>
        <time>2020-12-06T14:30:16Z</time>
      </trkpt>
      <trkpt lat="45.57288" lon="6.7912">
        <ele>1902.357</ele>
        <time>2020-12-06T14:30:26Z</time>
      </trkpt>
      <trkpt lat="45.5729" lon="6.7911">
        <ele>1900.926</ele>
        <time>2020-12-06T14:30:34Z</time>
      </trkpt>
      <trkpt lat="45.57291" lon="6.79101">
        <ele>1897.798</ele>
        <time>2020-12-06T14:30:42Z</time>
      </trkpt>
      <trkpt lat="45.57293" lon="6.79091">
        <ele>1895.983</ele>
        <time>2020-12-06T14:30:49Z</time>
      </trkpt>
      <trkpt lat="45.57294" lon="6.7908">
        <ele>1893.686</ele>
        <time>2020-12-06T14:30:54Z</time>
      </trkpt>
      <trkpt lat="45.57296" lon="6.79066">
        <ele>1890.934</ele>
        <time>2020-12-06T14:30:59Z</time>
      </trkpt>
      <trkpt lat="45.57298" lon="6.7905">
        <ele>1887.743</ele>
        <time>2020-12-06T14:31:04Z</time>
      </trkpt>
      <trkpt lat="45.57303" lon="6.79034">
        <ele>1885.111</ele>
        <time>2020-12-06T14:31:09Z</time>
      </trkpt>
      <trkpt lat="45.57306" lon="6.79018">
        <ele>1882.67</ele>
        <time>2020-12-06T14:31:14Z</time>
      </trkpt>
      <trkpt lat="45.57308" lon="6.79002">
        <ele>1879.993</ele>
        <time>2020-12-06T14:31:19Z</time>
      </trkpt>
      <trkpt lat="45.57311" lon="6.78988">
        <ele>1877.832</ele>
        <time>2020-12-06T14:31:24Z</time>
      </trkpt>
      <trkpt lat="45.57314" lon="6.78974">
        <ele>1876.129</ele>
        <time>2020-12-06T14:31:29Z</time>
      </trkpt>
      <trkpt lat="45.57318" lon="6.78961">
        <ele>1872.516</ele>
        <time>2020-12-06T14:31:34Z</time>
      </trkpt>
      <trkpt lat="45.57322" lon="6.78949">
        <ele>1869.2</ele>
        <time>2020-12-06T14:31:39Z</time>
      </trkpt>
      <trkpt lat="45.57326" lon="6.78936">
        <ele>1866.543</ele>
        <time>2020-12-06T14:31:44Z</time>
      </trkpt>
      <trkpt lat="45.57331" lon="6.78924">
        <ele>1863.696</ele>
        <time>2020-12-06T14:31:49Z</time>
      </trkpt>
      <trkpt lat="45.57337" lon="6.78914">
        <ele>1860.699</ele>
        <time>2020-12-06T14:31:54Z</time>
      </trkpt>
      <trkpt lat="45.57338" lon="6.78904">
        <ele>1858.925</ele>
        <time>2020-12-06T14:32:00Z</time>
      </trkpt>
      <trkpt lat="45.57341" lon="6.78894">
        <ele>1857.227</ele>
        <time>2020-12-06T14:32:07Z</time>
      </trkpt>
      <trkpt lat="45.57343" lon="6.78885">
        <ele>1855.894</ele>
        <time>2020-12-06T14:32:13Z</time>
      </trkpt>
      <trkpt lat="45.57345" lon="6.78876">
        <ele>1854.107</ele>
        <time>2020-12-06T14:32:20Z</time>
      </trkpt>
      <trkpt lat="45.57345" lon="6.78865">
        <ele>1852.204</ele>
        <time>2020-12-06T14:32:26Z</time>
      </trkpt>
      <trkpt lat="45.57345" lon="6.78852">
        <ele>1849.542</ele>
        <time>2020-12-06T14:32:31Z</time>
      </trkpt>
      <trkpt lat="45.57343" lon="6.78843">
        <ele>1848.256</ele>
        <time>2020-12-06T14:32:36Z</time>
      </trkpt>
      <trkpt lat="45.57342" lon="6.78833">
        <ele>1846.43</ele>
        <time>2020-12-06T14:32:42Z</time>
      </trkpt>
      <trkpt lat="45.57341" lon="6.78823">
        <ele>1844.375</ele>
        <time>2020-12-06T14:32:48Z</time>
      </trkpt>
      <trkpt lat="45.57338" lon="6.78813">
        <ele>1843.122</ele>
        <time>2020-12-06T14:32:54Z</time>
      </trkpt>
      <trkpt lat="45.57336" lon="6.78804">
        <ele>1841.205</ele>
        <time>2020-12-06T14:33:00Z</time>
      </trkpt>
      <trkpt lat="45.57336" lon="6.78794">
        <ele>1838.263</ele>
        <time>2020-12-06T14:33:07Z</time>
      </trkpt>
      <trkpt lat="45.57336" lon="6.78784">
        <ele>1836.902</ele>
        <time>2020-12-06T14:33:13Z</time>
      </trkpt>
      <trkpt lat="45.57334" lon="6.78775">
        <ele>1835.413</ele>
        <time>2020-12-06T14:33:19Z</time>
      </trkpt>
      <trkpt lat="45.57333" lon="6.78764">
        <ele>1836.843</ele>
        <time>2020-12-06T14:33:27Z</time>
      </trkpt>
      <trkpt lat="45.57331" lon="6.78754">
        <ele>1836.9</ele>
        <time>2020-12-06T14:33:33Z</time>
      </trkpt>
      <trkpt lat="45.57329" lon="6.78743">
        <ele>1836.431</ele>
        <time>2020-12-06T14:33:39Z</time>
      </trkpt>
      <trkpt lat="45.57328" lon="6.78734">
        <ele>1837.094</ele>
        <time>2020-12-06T14:33:44Z</time>
      </trkpt>
      <trkpt lat="45.57327" lon="6.78724">
        <ele>1835.515</ele>
        <time>2020-12-06T14:33:50Z</time>
      </trkpt>
      <trkpt lat="45.57324" lon="6.78714">
        <ele>1834.709</ele>
        <time>2020-12-06T14:33:56Z</time>
      </trkpt>
      <trkpt lat="45.57323" lon="6.78705">
        <ele>1831.448</ele>
        <time>2020-12-06T14:34:03Z</time>
      </trkpt>
      <trkpt lat="45.57323" lon="6.78695">
        <ele>1826.93</ele>
        <time>2020-12-06T14:34:18Z</time>
      </trkpt>
      <trkpt lat="45.57322" lon="6.78685">
        <ele>1825.243</ele>
        <time>2020-12-06T14:34:25Z</time>
      </trkpt>
      <trkpt lat="45.57323" lon="6.78675">
        <ele>1823.073</ele>
        <time>2020-12-06T14:34:32Z</time>
      </trkpt>
      <trkpt lat="45.57324" lon="6.78666">
        <ele>1822.195</ele>
        <time>2020-12-06T14:34:38Z</time>
      </trkpt>
      <trkpt lat="45.57324" lon="6.78656">
        <ele>1820.742</ele>
        <time>2020-12-06T14:34:43Z</time>
      </trkpt>
      <trkpt lat="45.57323" lon="6.78646">
        <ele>1820.32</ele>
        <time>2020-12-06T14:34:48Z</time>
      </trkpt>
      <trkpt lat="45.57323" lon="6.78637">
        <ele>1819.678</ele>
        <time>2020-12-06T14:34:53Z</time>
      </trkpt>
      <trkpt lat="45.57322" lon="6.78627">
        <ele>1819.648</ele>
        <time>2020-12-06T14:34:58Z</time>
      </trkpt>
      <trkpt lat="45.5732" lon="6.78617">
        <ele>1817.623</ele>
        <time>2020-12-06T14:35:04Z</time>
      </trkpt>
      <trkpt lat="45.57318" lon="6.78608">
        <ele>1816.495</ele>
        <time>2020-12-06T14:35:09Z</time>
      </trkpt>
      <trkpt lat="45.57317" lon="6.78597">
        <ele>1814.912</ele>
        <time>2020-12-06T14:35:15Z</time>
      </trkpt>
      <trkpt lat="45.57314" lon="6.78586">
        <ele>1813.833</ele>
        <time>2020-12-06T14:35:21Z</time>
      </trkpt>
      <trkpt lat="45.57312" lon="6.78577">
        <ele>1814.601</ele>
        <time>2020-12-06T14:35:26Z</time>
      </trkpt>
      <trkpt lat="45.57307" lon="6.7857">
        <ele>1814.296</ele>
        <time>2020-12-06T14:35:32Z</time>
      </trkpt>
      <trkpt lat="45.57302" lon="6.78563">
        <ele>1811.911</ele>
        <time>2020-12-06T14:35:38Z</time>
      </trkpt>
      <trkpt lat="45.57297" lon="6.78557">
        <ele>1809.21</ele>
        <time>2020-12-06T14:35:44Z</time>
      </trkpt>
      <trkpt lat="45.57291" lon="6.78553">
        <ele>1806.254</ele>
        <time>2020-12-06T14:35:50Z</time>
      </trkpt>
      <trkpt lat="45.57286" lon="6.78546">
        <ele>1803.573</ele>
        <time>2020-12-06T14:35:56Z</time>
      </trkpt>
      <trkpt lat="45.57284" lon="6.78536">
        <ele>1802.948</ele>
        <time>2020-12-06T14:36:02Z</time>
      </trkpt>
      <trkpt lat="45.57283" lon="6.78526">
        <ele>1802.077</ele>
        <time>2020-12-06T14:36:07Z</time>
      </trkpt>
      <trkpt lat="45.57282" lon="6.78517">
        <ele>1801.622</ele>
        <time>2020-12-06T14:36:13Z</time>
      </trkpt>
      <trkpt lat="45.5728" lon="6.78507">
        <ele>1800.393</ele>
        <time>2020-12-06T14:36:19Z</time>
      </trkpt>
      <trkpt lat="45.5728" lon="6.78496">
        <ele>1799.47</ele>
        <time>2020-12-06T14:36:25Z</time>
      </trkpt>
      <trkpt lat="45.57281" lon="6.78486">
        <ele>1798.851</ele>
        <time>2020-12-06T14:36:31Z</time>
      </trkpt>
      <trkpt lat="45.57281" lon="6.78476">
        <ele>1797.066</ele>
        <time>2020-12-06T14:36:37Z</time>
      </trkpt>
      <trkpt lat="45.57281" lon="6.78465">
        <ele>1796.273</ele>
        <time>2020-12-06T14:36:44Z</time>
      </trkpt>
      <trkpt lat="45.57282" lon="6.78455">
        <ele>1796.6</ele>
        <time>2020-12-06T14:36:51Z</time>
      </trkpt>
      <trkpt lat="45.57284" lon="6.78445">
        <ele>1795.221</ele>
        <time>2020-12-06T14:36:57Z</time>
      </trkpt>
      <trkpt lat="45.57286" lon="6.78436">
        <ele>1794.601</ele>
        <time>2020-12-06T14:37:03Z</time>
      </trkpt>
      <trkpt lat="45.57289" lon="6.78427">
        <ele>1793.541</ele>
        <time>2020-12-06T14:37:09Z</time>
      </trkpt>
      <trkpt lat="45.57291" lon="6.78418">
        <ele>1792.573</ele>
        <time>2020-12-06T14:37:14Z</time>
      </trkpt>
      <trkpt lat="45.57292" lon="6.78408">
        <ele>1790.603</ele>
        <time>2020-12-06T14:37:20Z</time>
      </trkpt>
      <trkpt lat="45.57296" lon="6.78399">
        <ele>1788.923</ele>
        <time>2020-12-06T14:37:25Z</time>
      </trkpt>
      <trkpt lat="45.57298" lon="6.7839">
        <ele>1787.075</ele>
        <time>2020-12-06T14:37:30Z</time>
      </trkpt>
      <trkpt lat="45.57296" lon="6.78379">
        <ele>1786.277</ele>
        <time>2020-12-06T14:37:36Z</time>
      </trkpt>
      <trkpt lat="45.57297" lon="6.78368">
        <ele>1782.945</ele>
        <time>2020-12-06T14:37:42Z</time>
      </trkpt>
      <trkpt lat="45.57301" lon="6.78359">
        <ele>1781.262</ele>
        <time>2020-12-06T14:37:49Z</time>
      </trkpt>
      <trkpt lat="45.57303" lon="6.78347">
        <ele>1778.299</ele>
        <time>2020-12-06T14:37:54Z</time>
      </trkpt>
      <trkpt lat="45.57306" lon="6.78336">
        <ele>1776.107</ele>
        <time>2020-12-06T14:37:59Z</time>
      </trkpt>
      <trkpt lat="45.57309" lon="6.78324">
        <ele>1772.931</ele>
        <time>2020-12-06T14:38:04Z</time>
      </trkpt>
      <trkpt lat="45.57312" lon="6.78312">
        <ele>1770.241</ele>
        <time>2020-12-06T14:38:09Z</time>
      </trkpt>
      <trkpt lat="45.57316" lon="6.78301">
        <ele>1767.839</ele>
        <time>2020-12-06T14:38:14Z</time>
      </trkpt>
      <trkpt lat="45.57319" lon="6.78287">
        <ele>1764.747</ele>
        <time>2020-12-06T14:38:19Z</time>
      </trkpt>
      <trkpt lat="45.57322" lon="6.78272">
        <ele>1761.769</ele>
        <time>2020-12-06T14:38:24Z</time>
      </trkpt>
      <trkpt lat="45.57325" lon="6.78258">
        <ele>1759.018</ele>
        <time>2020-12-06T14:38:29Z</time>
      </trkpt>
      <trkpt lat="45.57329" lon="6.78245">
        <ele>1755.862</ele>
        <time>2020-12-06T14:38:34Z</time>
      </trkpt>
      <trkpt lat="45.57334" lon="6.78236">
        <ele>1753.582</ele>
        <time>2020-12-06T14:38:39Z</time>
      </trkpt>
      <trkpt lat="45.57338" lon="6.78223">
        <ele>1749.98</ele>
        <time>2020-12-06T14:38:44Z</time>
      </trkpt>
      <trkpt lat="45.57341" lon="6.78209">
        <ele>1747.474</ele>
        <time>2020-12-06T14:38:49Z</time>
      </trkpt>
      <trkpt lat="45.57347" lon="6.78195">
        <ele>1744.973</ele>
        <time>2020-12-06T14:38:54Z</time>
      </trkpt>
      <trkpt lat="45.57351" lon="6.78181">
        <ele>1742.973</ele>
        <time>2020-12-06T14:38:59Z</time>
      </trkpt>
      <trkpt lat="45.57352" lon="6.78171">
        <ele>1742.692</ele>
        <time>2020-12-06T14:39:04Z</time>
      </trkpt>
      <trkpt lat="45.57354" lon="6.78161">
        <ele>1740.989</ele>
        <time>2020-12-06T14:39:10Z</time>
      </trkpt>
      <trkpt lat="45.57356" lon="6.78151">
        <ele>1738.832</ele>
        <time>2020-12-06T14:39:15Z</time>
      </trkpt>
      <trkpt lat="45.57357" lon="6.78141">
        <ele>1739.326</ele>
        <time>2020-12-06T14:39:21Z</time>
      </trkpt>
      <trkpt lat="45.57358" lon="6.78131">
        <ele>1738.277</ele>
        <time>2020-12-06T14:39:26Z</time>
      </trkpt>
      <trkpt lat="45.57358" lon="6.78122">
        <ele>1736.415</ele>
        <time>2020-12-06T14:39:31Z</time>
      </trkpt>
      <trkpt lat="45.5736" lon="6.78112">
        <ele>1736.372</ele>
        <time>2020-12-06T14:39:36Z</time>
      </trkpt>
      <trkpt lat="45.57362" lon="6.78102">
        <ele>1734.377</ele>
        <time>2020-12-06T14:39:42Z</time>
      </trkpt>
      <trkpt lat="45.57365" lon="6.78092">
        <ele>1732.54</ele>
        <time>2020-12-06T14:39:48Z</time>
      </trkpt>
      <trkpt lat="45.57366" lon="6.78083">
        <ele>1730.856</ele>
        <time>2020-12-06T14:39:53Z</time>
      </trkpt>
      <trkpt lat="45.57368" lon="6.78074">
        <ele>1729.65</ele>
        <time>2020-12-06T14:39:58Z</time>
      </trkpt>
      <trkpt lat="45.57368" lon="6.78064">
        <ele>1727.213</ele>
        <time>2020-12-06T14:40:03Z</time>
      </trkpt>
      <trkpt lat="45.57369" lon="6.78055">
        <ele>1725.412</ele>
        <time>2020-12-06T14:40:08Z</time>
      </trkpt>
      <trkpt lat="45.5737" lon="6.78045">
        <ele>1724.417</ele>
        <time>2020-12-06T14:40:13Z</time>
      </trkpt>
      <trkpt lat="45.5737" lon="6.78036">
        <ele>1722.866</ele>
        <time>2020-12-06T14:40:18Z</time>
      </trkpt>
      <trkpt lat="45.57369" lon="6.78026">
        <ele>1721.224</ele>
        <time>2020-12-06T14:40:23Z</time>
      </trkpt>
      <trkpt lat="45.57372" lon="6.78009">
        <ele>1717.914</ele>
        <time>2020-12-06T14:40:28Z</time>
      </trkpt>
      <trkpt lat="45.57381" lon="6.77996">
        <ele>1715.306</ele>
        <time>2020-12-06T14:40:33Z</time>
      </trkpt>
      <trkpt lat="45.57389" lon="6.77989">
        <ele>1715.545</ele>
        <time>2020-12-06T14:40:38Z</time>
      </trkpt>
      <trkpt lat="45.57395" lon="6.77984">
        <ele>1715.342</ele>
        <time>2020-12-06T14:40:43Z</time>
      </trkpt>
      <trkpt lat="45.57402" lon="6.7798">
        <ele>1714.035</ele>
        <time>2020-12-06T14:40:49Z</time>
      </trkpt>
      <trkpt lat="45.57406" lon="6.77972">
        <ele>1711.936</ele>
        <time>2020-12-06T14:45:29Z</time>
      </trkpt>
      <trkpt lat="45.57414" lon="6.77976">
        <ele>1711.562</ele>
        <time>2020-12-06T14:45:34Z</time>
      </trkpt>
      <trkpt lat="45.57421" lon="6.77978">
        <ele>1710.382</ele>
        <time>2020-12-06T14:45:39Z</time>
      </trkpt>
      <trkpt lat="45.57428" lon="6.7798">
        <ele>1710.112</ele>
        <time>2020-12-06T14:45:44Z</time>
      </trkpt>
      <trkpt lat="45.57436" lon="6.77982">
        <ele>1709.473</ele>
        <time>2020-12-06T14:45:49Z</time>
      </trkpt>
      <trkpt lat="45.57442" lon="6.77984">
        <ele>1708.84</ele>
        <time>2020-12-06T14:45:54Z</time>
      </trkpt>
      <trkpt lat="45.57448" lon="6.77987">
        <ele>1709.131</ele>
        <time>2020-12-06T14:46:00Z</time>
      </trkpt>
      <trkpt lat="45.57454" lon="6.77993">
        <ele>1708.702</ele>
        <time>2020-12-06T14:46:06Z</time>
      </trkpt>
      <trkpt lat="45.57461" lon="6.77995">
        <ele>1708.76</ele>
        <time>2020-12-06T14:46:12Z</time>
      </trkpt>
      <trkpt lat="45.57469" lon="6.77998">
        <ele>1709.728</ele>
        <time>2020-12-06T14:46:18Z</time>
      </trkpt>
      <trkpt lat="45.57476" lon="6.77997">
        <ele>1711.176</ele>
        <time>2020-12-06T14:46:23Z</time>
      </trkpt>
      <trkpt lat="45.57484" lon="6.77996">
        <ele>1712.552</ele>
        <time>2020-12-06T14:46:28Z</time>
      </trkpt>
      <trkpt lat="45.57491" lon="6.77994">
        <ele>1713.658</ele>
        <time>2020-12-06T14:46:33Z</time>
      </trkpt>
      <trkpt lat="45.57499" lon="6.77996">
        <ele>1718.23</ele>
        <time>2020-12-06T14:47:10Z</time>
      </trkpt>
      <trkpt lat="45.57506" lon="6.77998">
        <ele>1721.031</ele>
        <time>2020-12-06T14:47:15Z</time>
      </trkpt>
      <trkpt lat="45.57513" lon="6.78001">
        <ele>1719.15</ele>
        <time>2020-12-06T14:47:20Z</time>
      </trkpt>
      <trkpt lat="45.5752" lon="6.78004">
        <ele>1718.561</ele>
        <time>2020-12-06T14:47:25Z</time>
      </trkpt>
      <trkpt lat="45.57528" lon="6.78008">
        <ele>1720.403</ele>
        <time>2020-12-06T14:47:30Z</time>
      </trkpt>
      <trkpt lat="45.57534" lon="6.78014">
        <ele>1719.629</ele>
        <time>2020-12-06T14:47:35Z</time>
      </trkpt>
      <trkpt lat="45.5754" lon="6.7802">
        <ele>1719.787</ele>
        <time>2020-12-06T14:47:41Z</time>
      </trkpt>
      <trkpt lat="45.57546" lon="6.78024">
        <ele>1720.161</ele>
        <time>2020-12-06T14:47:46Z</time>
      </trkpt>
      <trkpt lat="45.57552" lon="6.78028">
        <ele>1719.059</ele>
        <time>2020-12-06T14:47:51Z</time>
      </trkpt>
      <trkpt lat="45.57559" lon="6.7803">
        <ele>1718.875</ele>
        <time>2020-12-06T14:47:58Z</time>
      </trkpt>
      <trkpt lat="45.57566" lon="6.78032">
        <ele>1717.798</ele>
        <time>2020-12-06T14:48:05Z</time>
      </trkpt>
      <trkpt lat="45.57573" lon="6.78028">
        <ele>1715.071</ele>
        <time>2020-12-06T14:48:11Z</time>
      </trkpt>
      <trkpt lat="45.5758" lon="6.78023">
        <ele>1713.753</ele>
        <time>2020-12-06T14:48:17Z</time>
      </trkpt>
      <trkpt lat="45.57587" lon="6.78018">
        <ele>1713.278</ele>
        <time>2020-12-06T14:48:23Z</time>
      </trkpt>
      <trkpt lat="45.57593" lon="6.78014">
        <ele>1713.984</ele>
        <time>2020-12-06T14:48:28Z</time>
      </trkpt>
      <trkpt lat="45.57598" lon="6.78007">
        <ele>1714.183</ele>
        <time>2020-12-06T14:48:36Z</time>
      </trkpt>
      <trkpt lat="45.57606" lon="6.78005">
        <ele>1713.716</ele>
        <time>2020-12-06T14:48:41Z</time>
      </trkpt>
      <trkpt lat="45.57607" lon="6.77994">
        <ele>1719.443</ele>
        <time>2020-12-06T14:49:06Z</time>
      </trkpt>
    </trkseg>
  </trk>
</gpx>